M I D A S
Marine Information and Data Acquisition System
Tripno 2202 of the Zeeleeuw from 2011-10-20 06:37:34 to 2011-10-20 15:03:50
Back to CruiseResearch ActivitiesStationsMapUnderway DataData graphs

EquipmentUnitsComment
TimeDGPSUTC
LatitudeDGPSDM.mWGS84
LongitudeDGPSDM.mWGS84
TemperatureSBE03/SBE38deg celciusITS90
ConductivitySBE21S/mITS90
SalinitySBE21 Practical Salinity Units
ChlorophylAChelsea fluorimeterg/lCalibrated in Aceton
Missing or incorrect values are displayed as -999
Sea surface data collected by the RV Zeeleeuw from 2011-10-20 06:34:08 to 2011-10-20 15:12:48
                                                                                    Next 1000 lines
Time Latitude Longitude Temperature Conductivity Salinity ChlorophylA
2011-10-20 06:34:18 51°13.637 2°56.013 17.7645 1.255986 8.630226 -3.020363
2011-10-20 06:34:23 51°13.638 2°56.009 17.7724 1.255986 8.630226 -3.020363
2011-10-20 06:34:28 51°13.639 2°56.005 17.7707 1.255471 8.626398 -3.020363
2011-10-20 06:34:33 51°13.641 2°56 17.7735 1.25578 8.628695 -3.020363
2011-10-20 06:34:39 51°13.643 2°55.993 17.7873 1.257841 8.644178 -3.020363
2011-10-20 06:34:45 51°13.645 2°55.985 17.7779 1.256811 8.636522 -3.020363
2011-10-20 06:34:51 51°13.647 2°55.977 17.786 1.260418 8.663323 -3.020363
2011-10-20 06:34:56 51°13.65 2°55.971 17.7795 1.260418 8.663323 -3.020363
2011-10-20 06:35:01 51°13.652 2°55.964 17.7795 1.280618 8.813724 -3.020363
2011-10-20 06:35:06 51°13.653 2°55.955 17.7954 1.306074 9.003562 -3.020363
2011-10-20 06:35:11 51°13.654 2°55.947 17.7855 1.294222 8.91521 -3.020363
2011-10-20 06:35:16 51°13.656 2°55.939 17.784 1.28979 8.882371 -3.020363
2011-10-20 06:35:21 51°13.657 2°55.932 17.7924 1.286595 8.858576 -3.020363
2011-10-20 06:35:26 51°13.659 2°55.924 17.782 1.286595 8.858576 -3.020363
2011-10-20 06:35:31 51°13.66 2°55.916 17.7895 1.283709 8.837089 -3.020363
2011-10-20 06:35:36 51°13.662 2°55.909 17.767 1.280721 8.815015 -3.020363
2011-10-20 06:35:41 51°13.664 2°55.901 17.7623 1.277938 8.794304 -3.020363
2011-10-20 06:35:47 51°13.667 2°55.891 17.7682 1.277835 8.793537 -3.020363
2011-10-20 06:35:51 51°13.668 2°55.885 17.7676 1.275671 8.777606 -3.020363
2011-10-20 06:35:56 51°13.671 2°55.876 17.7953 1.275671 8.777606 -3.020363
2011-10-20 06:36:01 51°13.674 2°55.868 17.7915 1.273094 8.758437 -3.020363
2011-10-20 06:36:06 51°13.677 2°55.859 17.7909 1.270518 8.739271 -3.020363
2011-10-20 06:36:11 51°13.68 2°55.85 17.7877 1.271239 8.74481 -3.020363
2011-10-20 06:36:17 51°13.684 2°55.839 17.7749 1.271239 8.744984 -3.020363
2011-10-20 06:36:21 51°13.687 2°55.832 17.7699 1.269899 8.735018 -3.020363
2011-10-20 06:36:26 51°13.691 2°55.823 17.7906 1.267632 8.718156 -3.020363
2011-10-20 06:36:32 51°13.695 2°55.812 17.7808 1.267632 8.718156 -3.020363
2011-10-20 06:36:37 51°13.699 2°55.803 17.7691 1.269281 8.730592 -3.020363
2011-10-20 06:36:42 51°13.704 2°55.794 17.8002 1.272064 8.75129 -3.020363
2011-10-20 06:36:46 51°13.707 2°55.787 17.7723 1.270415 8.739197 -3.020363
2011-10-20 06:36:52 51°13.713 2°55.776 17.7598 1.271651 8.74857 -3.020363
2011-10-20 06:36:57 51°13.718 2°55.767 17.7752 1.271651 8.74857 -3.020363
2011-10-20 06:37:01 51°13.721 2°55.76 17.7675 1.273609 8.763138 -3.020363
2011-10-20 06:37:06 51°13.726 2°55.751 17.791 1.274228 8.767739 -3.020363
2011-10-20 06:37:11 51°13.731 2°55.743 17.7674 1.273919 8.765612 -3.020363
2011-10-20 06:37:17 51°13.737 2°55.732 17.7797 1.275568 8.777882 -3.020363
2011-10-20 06:37:21 51°13.741 2°55.726 17.7793 1.275258 8.775755 -3.020363
2011-10-20 06:37:26 51°13.746 2°55.718 17.7771 1.275258 8.775755 -3.020363
2011-10-20 06:37:31 51°13.752 2°55.71 17.7905 1.273919 8.765786 -3.020363
2011-10-20 06:37:36 51°13.758 2°55.702 17.7838 1.276495 8.784959 -3.020363
2011-10-20 06:37:42 51°13.765 2°55.693 17.7879 1.276083 8.782065 -3.020363
2011-10-20 06:37:46 51°13.77 2°55.688 17.7672 1.268663 8.726857 -3.020363
2011-10-20 06:37:51 51°13.776 2°55.681 17.7503 1.265056 8.700204 -3.020363
2011-10-20 06:37:56 51°13.783 2°55.675 17.7706 1.265056 8.700204 -3.020363
2011-10-20 06:38:01 51°13.79 2°55.67 17.7818 1.258975 8.655001 -3.020363
2011-10-20 06:38:06 51°13.797 2°55.664 17.7611 1.256914 8.639683 -3.020363
2011-10-20 06:38:11 51°13.804 2°55.659 17.7615 1.257429 8.643512 -3.020363
2011-10-20 06:38:16 51°13.811 2°55.654 17.7754 1.260212 8.664193 -3.020363
2011-10-20 06:38:21 51°13.818 2°55.649 17.7641 1.261139 8.670916 -3.020363
2011-10-20 06:38:27 51°13.827 2°55.644 17.7616 1.257945 8.64717 -3.020363
2011-10-20 06:38:31 51°13.832 2°55.64 17.753 1.257945 8.64717 -3.020363
2011-10-20 06:38:36 51°13.839 2°55.636 17.7513 1.264128 8.692963 -3.020363
2011-10-20 06:38:41 51°13.848 2°55.631 17.7706 1.255986 8.632448 -3.020363
2011-10-20 06:38:46 51°13.855 2°55.627 17.7712 1.252276 8.605056 -3.020363
2011-10-20 06:38:51 51°13.861 2°55.625 17.7678 1.302364 8.97803 -3.020363
2011-10-20 06:38:57 51°13.87 2°55.621 17.7633 1.302364 8.97803 -3.020363
2011-10-20 06:39:02 51°13.877 2°55.619 17.757 1.369259 9.478319 -3.020363
2011-10-20 06:39:07 51°13.884 2°55.617 17.7284 1.361322 9.419038 -3.020363
2011-10-20 06:39:11 51°13.889 2°55.615 17.7563 1.338645 9.249688 -3.020363
2011-10-20 06:39:16 51°13.896 2°55.614 17.7643 1.330502 9.189177 -3.020363
2011-10-20 06:39:21 51°13.902 2°55.613 17.776 1.311331 9.046175 -3.020363
2011-10-20 06:39:25 51°13.908 2°55.613 17.7696 1.311331 9.046175 -3.020363
2011-10-20 06:39:30 51°13.914 2°55.613 17.7562 1.320813 9.117332 -3.020363
2011-10-20 06:39:36 51°13.92 2°55.614 17.7403 1.30154 8.973659 -3.020363
2011-10-20 06:39:41 51°13.925 2°55.615 17.7349 1.290099 8.888548 -3.020363
2011-10-20 06:39:46 51°13.931 2°55.616 17.7529 1.286801 8.863974 -3.020363
2011-10-20 06:39:51 51°13.936 2°55.618 17.7457 1.297417 8.94327 -3.020363
2011-10-20 06:39:56 51°13.94 2°55.62 17.7473 1.297417 8.94327 -3.020363
2011-10-20 06:40:01 51°13.945 2°55.622 17.7564 1.297829 8.946344 -3.020363
2011-10-20 06:40:06 51°13.949 2°55.625 17.765 1.313392 9.062459 -3.020363
2011-10-20 06:40:11 51°13.954 2°55.629 17.7603 1.323184 9.135583 -3.020363
2011-10-20 06:40:16 51°13.957 2°55.631 17.7538 1.316794 9.087854 -3.020363
2011-10-20 06:40:21 51°13.961 2°55.634 17.74 1.329059 9.179484 -3.020363
2011-10-20 06:40:26 51°13.964 2°55.638 17.7317 1.329059 9.179484 -3.020363
2011-10-20 06:40:31 51°13.967 2°55.641 17.7647 1.314526 9.070923 -3.020363
2011-10-20 06:40:36 51°13.97 2°55.644 17.7704 1.365651 9.453345 -3.020363
2011-10-20 06:40:41 51°13.972 2°55.646 17.7769 1.490496 10.393156 -3.020363
2011-10-20 06:40:46 51°13.972 2°55.647 17.7299 1.410286 9.788397 -3.020363
2011-10-20 06:40:51 51°13.972 2°55.645 17.69 1.394411 9.668914 -3.020363
2011-10-20 06:40:56 51°13.971 2°55.643 17.6217 1.394411 9.668914 -3.020363
2011-10-20 06:41:01 51°13.969 2°55.638 17.6483 1.356065 9.381342 -3.020363
2011-10-20 06:41:06 51°13.967 2°55.632 17.5318 1.270724 8.744095 -3.020363
2011-10-20 06:41:11 51°13.966 2°55.624 17.501 1.172414 8.015266 -3.020363
2011-10-20 06:41:16 51°13.966 2°55.615 17.3954 1.057436 7.170519 -3.020363
2011-10-20 06:41:21 51°13.967 2°55.605 17.4292 1.026738 6.946411 -3.020363
2011-10-20 06:41:26 51°13.969 2°55.596 17.4457 1.026738 6.946411 -3.020363
2011-10-20 06:41:31 51°13.972 2°55.586 17.465 1.023854 6.925523 -3.020363
2011-10-20 06:41:36 51°13.976 2°55.577 17.4827 1.046413 7.090258 -3.020363
2011-10-20 06:41:41 51°13.981 2°55.569 17.4857 1.075155 7.300733 -3.020363
2011-10-20 06:41:45 51°13.985 2°55.564 17.5031 1.098953 7.475473 -3.020363
2011-10-20 06:41:50 51°13.99 2°55.558 17.5151 1.112758 7.577137 -3.020363
2011-10-20 06:41:55 51°13.996 2°55.553 17.5261 1.112758 7.577137 -3.020363
2011-10-20 06:42:00 51°14.003 2°55.547 17.5344 1.129758 7.70243 -3.020363
2011-10-20 06:42:06 51°14.011 2°55.54 17.554 1.145625 7.819411 -3.020363
2011-10-20 06:42:11 51°14.018 2°55.534 17.5506 1.17396 8.028586 -3.020363
2011-10-20 06:42:16 51°14.025 2°55.526 17.5539 1.202297 8.23794 -3.020363
2011-10-20 06:42:21 51°14.034 2°55.519 17.5601 1.280102 8.81565 -3.020363
2011-10-20 06:42:26 51°14.044 2°55.511 17.5573 1.280102 8.81565 -3.020363
2011-10-20 06:42:30 51°14.052 2°55.504 17.5375 1.362043 9.427806 -3.020363
2011-10-20 06:42:35 51°14.062 2°55.495 17.5563 1.298448 8.952197 -3.020363
2011-10-20 06:42:40 51°14.073 2°55.486 17.5565 1.288347 8.876723 -3.020363
2011-10-20 06:42:46 51°14.087 2°55.474 17.545 1.356271 9.384187 -3.020363
2011-10-20 06:42:50 51°14.096 2°55.466 17.5506 1.280515 8.818371 -3.020363
2011-10-20 06:42:55 51°14.108 2°55.456 17.5594 1.280515 8.818371 -3.020363
2011-10-20 06:43:00 51°14.12 2°55.444 17.5523 1.287214 8.868275 -3.020363
2011-10-20 06:43:05 51°14.131 2°55.433 17.5641 1.297005 8.94126 -3.020363
2011-10-20 06:43:09 51°14.141 2°55.424 17.5482 1.400802 9.718464 -3.020363
2011-10-20 06:43:15 51°14.156 2°55.409 17.5451 1.27093 8.747189 -3.020363
2011-10-20 06:43:21 51°14.172 2°55.395 17.55 1.225277 8.40803 -3.020363
2011-10-20 06:43:25 51°14.182 2°55.385 17.5475 1.225277 8.40803 -3.020363
2011-10-20 06:43:31 51°14.198 2°55.371 17.5389 1.208789 8.286007 -3.020363
2011-10-20 06:43:35 51°14.209 2°55.362 17.5372 1.189725 8.144931 -3.020363
2011-10-20 06:43:41 51°14.225 2°55.348 17.5307 1.230017 8.443524 -3.020363
2011-10-20 06:43:45 51°14.235 2°55.338 17.5648 1.196629 8.19616 -3.020363
2011-10-20 06:43:51 51°14.252 2°55.324 17.5427 1.308239 9.025784 -3.020363
2011-10-20 06:43:55 51°14.262 2°55.314 17.5361 1.308239 9.025784 -3.020363
2011-10-20 06:44:01 51°14.279 2°55.3 17.5161 1.147686 7.835061 -3.020363
2011-10-20 06:44:05 51°14.29 2°55.29 17.5524 1.139649 7.775854 -3.020363
2011-10-20 06:44:10 51°14.304 2°55.278 17.5401 1.013347 6.850743 -3.020363
2011-10-20 06:44:17 51°14.323 2°55.261 17.5476 1.002222 6.769893 -3.020363
2011-10-20 06:44:21 51°14.334 2°55.251 17.522 0.985536 6.648575 -3.020363
2011-10-20 06:44:25 51°14.346 2°55.242 17.5423 0.985536 6.648575 -3.020363
2011-10-20 06:44:30 51°14.36 2°55.228 17.5468 0.885223 5.923338 -3.020363
2011-10-20 06:44:35 51°14.373 2°55.215 17.5018 0.857727 5.725824 -3.020363
2011-10-20 06:44:41 51°14.39 2°55.198 17.2196 0.815303 5.420793 -3.020363
2011-10-20 06:44:45 51°14.401 2°55.188 16.4165 1.72068 12.145398 -3.020363
2011-10-20 06:44:51 51°14.418 2°55.171 15.8509 1.470081 10.234248 -3.020363
2011-10-20 06:44:55 51°14.429 2°55.16 14.9944 1.470081 10.234248 -3.020363
2011-10-20 06:45:01 51°14.446 2°55.143 14.556 1.10328 7.535599 -3.020363
2011-10-20 06:45:05 51°14.457 2°55.132 14.3942 1.101218 7.449641 -3.020363
2011-10-20 06:45:09 51°14.468 2°55.12 14.1529 1.127799 7.625847 -3.020363
2011-10-20 06:45:14 51°14.482 2°55.106 13.9734 1.145006 7.771314 -3.020363
2011-10-20 06:45:19 51°14.496 2°55.092 13.95 1.192405 8.168468 -3.020363
2011-10-20 06:45:24 51°14.509 2°55.078 13.8982 1.192405 8.168468 -3.020363
2011-10-20 06:45:29 51°14.523 2°55.064 13.8068 1.292369 9.02782 -3.020363
2011-10-20 06:45:33 51°14.535 2°55.052 13.8141 1.401426 9.983557 -3.020363
2011-10-20 06:45:38 51°14.549 2°55.038 13.6849 1.451428 10.506224 -3.020363
2011-10-20 06:45:43 51°14.563 2°55.023 13.6988 1.545051 11.365307 -3.020363
2011-10-20 06:45:48 51°14.577 2°55.008 13.6646 1.613837 12.010901 -3.020363
2011-10-20 06:45:53 51°14.591 2°54.994 13.6088 1.613837 12.010901 -3.020363
2011-10-20 06:45:58 51°14.605 2°54.98 13.6755 1.696247 12.758394 -3.020363
2011-10-20 06:46:02 51°14.616 2°54.969 13.6638 1.742667 13.188298 -3.020363
2011-10-20 06:46:08 51°14.633 2°54.953 13.6773 1.758967 13.365447 -3.020363
2011-10-20 06:46:13 51°14.647 2°54.94 13.6845 1.788267 13.645641 -3.020363
2011-10-20 06:46:17 51°14.659 2°54.931 13.6023 1.82675 13.996567 -3.020363
2011-10-20 06:46:22 51°14.673 2°54.917 13.61 1.82675 13.996567 -3.020363
2011-10-20 06:46:28 51°14.689 2°54.9 13.6253 1.868642 14.362394 -3.020363
2011-10-20 06:46:33 51°14.703 2°54.886 13.6391 1.895161 14.603994 -3.020363
2011-10-20 06:46:37 51°14.714 2°54.875 13.6431 1.917142 14.798347 -3.020363
2011-10-20 06:46:43 51°14.731 2°54.857 13.6469 1.943664 15.02688 -3.020363
2011-10-20 06:46:48 51°14.745 2°54.844 13.6469 1.955119 15.128748 -3.020363
2011-10-20 06:46:53 51°14.759 2°54.829 13.6416 1.955119 15.128748 -3.020363
2011-10-20 06:46:57 51°14.77 2°54.817 13.7035 1.971942 15.281095 -3.020363
2011-10-20 06:47:02 51°14.783 2°54.803 13.7184 1.98701 15.415903 -3.020363
2011-10-20 06:47:07 51°14.796 2°54.79 13.7051 1.998776 15.519234 -3.020363
2011-10-20 06:47:13 51°14.811 2°54.773 13.7051 2.007549 15.595263 -3.020363
2011-10-20 06:47:18 51°14.824 2°54.76 13.7249 2.021277 15.713019 -3.020363
2011-10-20 06:47:23 51°14.837 2°54.746 13.736 2.026335 15.755923 -3.020363
2011-10-20 06:47:28 51°14.849 2°54.731 13.7406 2.026335 15.755923 -3.020363
2011-10-20 06:47:33 51°14.861 2°54.715 13.7091 2.039753 15.867378 -3.020363
2011-10-20 06:47:37 51°14.87 2°54.702 13.7373 2.048424 15.93507 -3.020363
2011-10-20 06:47:42 51°14.881 2°54.684 13.7345 2.063288 16.05605 -3.020363
2011-10-20 06:47:47 51°14.892 2°54.667 13.7425 2.071959 16.126193 -3.020363
2011-10-20 06:47:52 51°14.903 2°54.649 13.7762 2.071959 16.126193 -3.020363
2011-10-20 06:47:57 51°14.914 2°54.631 13.7684 2.082075 16.208271 -3.020363
2011-10-20 06:48:03 51°14.927 2°54.608 13.7712 2.092501 16.293704 -3.020363
2011-10-20 06:48:07 51°14.936 2°54.594 13.788 2.10045 16.360587 -3.020363
2011-10-20 06:48:13 51°14.949 2°54.571 13.7932 2.105818 16.405178 -3.020363
2011-10-20 06:48:17 51°14.958 2°54.556 13.8083 2.116039 16.489268 -3.020363
2011-10-20 06:48:22 51°14.97 2°54.538 13.8241 2.116039 16.489268 -3.020363
2011-10-20 06:48:27 51°14.981 2°54.519 13.8152 2.120581 16.525043 -3.020363
2011-10-20 06:48:33 51°14.994 2°54.496 13.8252 2.124504 16.554458 -3.020363
2011-10-20 06:48:37 51°15.002 2°54.48 13.8336 2.136686 16.654903 -3.020363
2011-10-20 06:48:42 51°15.012 2°54.461 13.8465 2.146907 16.737937 -3.020363
2011-10-20 06:48:47 51°15.023 2°54.442 13.8521 2.154237 16.794886 -3.020363
2011-10-20 06:48:52 51°15.034 2°54.423 13.8534 2.154237 16.794886 -3.020363
2011-10-20 06:48:57 51°15.046 2°54.405 13.8596 2.158161 16.823536 -3.020363
2011-10-20 06:49:03 51°15.061 2°54.384 13.8661 2.162807 16.859068 -3.020363
2011-10-20 06:49:07 51°15.071 2°54.371 13.8725 2.168692 16.905884 -3.020363
2011-10-20 06:49:13 51°15.085 2°54.351 13.8826 2.177881 16.98122 -3.020363
2011-10-20 06:49:18 51°15.098 2°54.335 13.8997 2.183559 17.025534 -3.020363
2011-10-20 06:49:23 51°15.111 2°54.319 13.8977 2.183559 17.025534 -3.020363
2011-10-20 06:49:27 51°15.121 2°54.307 13.8978 2.189548 17.072855 -3.020363
2011-10-20 06:49:33 51°15.137 2°54.288 13.9092 2.191923 17.090488 -3.020363
2011-10-20 06:49:38 51°15.15 2°54.272 13.9158 2.199976 17.155777 -3.020363
2011-10-20 06:49:43 51°15.163 2°54.257 13.9301 2.204726 17.1929 -3.020363
2011-10-20 06:49:48 51°15.177 2°54.241 13.9323 2.209992 17.234421 -3.020363
2011-10-20 06:49:53 51°15.19 2°54.227 13.9343 2.209992 17.234421 -3.020363
2011-10-20 06:49:57 51°15.201 2°54.214 13.9472 2.215465 17.276947 -3.020363
2011-10-20 06:50:03 51°15.217 2°54.196 13.9417 2.220524 17.317453 -3.020363
2011-10-20 06:50:07 51°15.228 2°54.184 13.9444 2.227752 17.376452 -3.020363
2011-10-20 06:50:13 51°15.243 2°54.167 13.9554 2.233328 17.420605 -3.020363
2011-10-20 06:50:17 51°15.254 2°54.155 13.9556 2.238491 17.460473 -3.020363
2011-10-20 06:50:23 51°15.27 2°54.137 13.9601 2.238491 17.460473 -3.020363
2011-10-20 06:50:27 51°15.282 2°54.126 13.9585 2.238594 17.457936 -3.020363
2011-10-20 06:50:32 51°15.296 2°54.112 13.9637 2.244893 17.507858 -3.020363
2011-10-20 06:50:37 51°15.31 2°54.098 13.9618 2.246855 17.521927 -3.020363
2011-10-20 06:50:43 51°15.327 2°54.083 13.9626 2.248301 17.532733 -3.020363
2011-10-20 06:50:48 51°15.34 2°54.07 13.9689 2.250057 17.545418 -3.020363
2011-10-20 06:50:52 51°15.352 2°54.06 13.9559 2.250057 17.545418 -3.020363
2011-10-20 06:50:57 51°15.366 2°54.046 13.9613 2.253361 17.571312 -3.020363
2011-10-20 06:51:02 51°15.379 2°54.033 13.9594 2.257698 17.606395 -3.020363
2011-10-20 06:51:07 51°15.393 2°54.019 13.9634 2.262345 17.644888 -3.020363
2011-10-20 06:51:12 51°15.406 2°54.005 13.9565 2.265133 17.667526 -3.020363
2011-10-20 06:51:17 51°15.42 2°53.991 13.957 2.266786 17.680856 -3.020363
2011-10-20 06:51:22 51°15.433 2°53.976 13.9657 2.266786 17.680856 -3.020363
2011-10-20 06:51:27 51°15.446 2°53.962 13.9621 2.273188 17.735496 -3.020363
2011-10-20 06:51:32 51°15.46 2°53.947 13.9561 2.269367 17.702501 -3.020363
2011-10-20 06:51:37 51°15.473 2°53.933 13.9546 2.278868 17.784755 -3.020363
2011-10-20 06:51:43 51°15.489 2°53.914 13.9533 2.277216 17.771034 -3.020363
2011-10-20 06:51:47 51°15.5 2°53.902 13.9561 2.286717 17.852558 -3.020363
2011-10-20 06:51:52 51°15.513 2°53.887 13.9554 2.286717 17.852558 -3.020363
2011-10-20 06:51:58 51°15.528 2°53.867 13.9681 2.286717 17.851782 -3.020363
2011-10-20 06:52:03 51°15.541 2°53.851 13.9643 2.288989 17.870802 -3.020363
2011-10-20 06:52:08 51°15.553 2°53.835 13.9656 2.295082 17.92325 -3.020363
2011-10-20 06:52:13 51°15.566 2°53.818 13.9709 2.293326 17.909416 -3.020363
2011-10-20 06:52:18 51°15.578 2°53.802 13.9735 2.295288 17.926573 -3.020363
2011-10-20 06:52:23 51°15.59 2°53.785 13.9744 2.295288 17.926573 -3.020363
2011-10-20 06:52:28 51°15.602 2°53.768 13.9838 2.300555 17.971593 -3.020363
2011-10-20 06:52:34 51°15.617 2°53.748 13.9864 2.307268 18.028597 -3.020363
2011-10-20 06:52:38 51°15.627 2°53.734 13.9862 2.302001 17.982 -3.020363
2011-10-20 06:52:43 51°15.639 2°53.717 13.9891 2.300968 17.972391 -3.020363
2011-10-20 06:52:48 51°15.651 2°53.7 13.9992 2.306339 18.017517 -3.020363
2011-10-20 06:52:53 51°15.663 2°53.684 14.0039 2.306339 18.017517 -3.020363
2011-10-20 06:52:58 51°15.675 2°53.667 14.0113 2.31078 18.05392 -3.020363
2011-10-20 06:53:03 51°15.687 2°53.651 14.0174 2.31584 18.095625 -3.020363
2011-10-20 06:53:08 51°15.7 2°53.636 14.0227 2.313465 18.072956 -3.020363
2011-10-20 06:53:13 51°15.713 2°53.62 14.0258 2.315117 18.085122 -3.020363
2011-10-20 06:53:18 51°15.727 2°53.605 14.0311 2.317493 18.10386 -3.020363
2011-10-20 06:53:23 51°15.74 2°53.59 14.0391 2.317493 18.10386 -3.020363
2011-10-20 06:53:27 51°15.751 2°53.578 14.0421 2.317389 18.100226 -3.020363
2011-10-20 06:53:32 51°15.765 2°53.563 14.0491 2.32183 18.135439 -3.020363
2011-10-20 06:53:37 51°15.778 2°53.548 14.055 2.324929 18.158384 -3.020363
2011-10-20 06:53:42 51°15.792 2°53.534 14.0637 2.323792 18.145522 -3.020363
2011-10-20 06:53:48 51°15.809 2°53.517 14.0662 2.327201 18.17229 -3.020363
2011-10-20 06:53:52 51°15.82 2°53.506 14.0743 2.327201 18.17229 -3.020363
2011-10-20 06:53:57 51°15.834 2°53.492 14.0815 2.327717 18.173944 -3.020363
2011-10-20 06:54:02 51°15.848 2°53.478 14.0872 2.326787 18.162849 -3.020363
2011-10-20 06:54:07 51°15.863 2°53.464 14.0944 2.326994 18.161857 -3.020363
2011-10-20 06:54:12 51°15.877 2°53.451 14.0997 2.319661 18.096084 -3.020363
2011-10-20 06:54:17 51°15.891 2°53.438 14.1127 2.329782 18.179771 -3.020363
2011-10-20 06:54:22 51°15.905 2°53.424 14.1159 2.329782 18.179771 -3.020363
2011-10-20 06:54:27 51°15.919 2°53.41 14.1199 2.331538 18.192009 -3.020363
2011-10-20 06:54:32 51°15.933 2°53.398 14.1235 2.335153 18.21894 -3.020363
2011-10-20 06:54:37 51°15.948 2°53.386 14.1288 2.34104 18.266064 -3.020363
2011-10-20 06:54:43 51°15.965 2°53.373 14.1358 2.330609 18.173439 -3.020363
2011-10-20 06:54:48 51°15.98 2°53.362 14.1426 2.340627 18.255023 -3.020363
2011-10-20 06:54:53 51°15.996 2°53.352 14.1465 2.340627 18.255023 -3.020363
2011-10-20 06:54:58 51°16.011 2°53.342 14.1514 2.338871 18.23569 -3.020363
2011-10-20 06:55:03 51°16.026 2°53.333 14.1581 2.344138 18.277887 -3.020363
2011-10-20 06:55:07 51°16.038 2°53.327 14.1655 2.341453 18.251411 -3.020363
2011-10-20 06:55:13 51°16.056 2°53.317 14.1674 2.338148 18.220056 -3.020363
2011-10-20 06:55:17 51°16.069 2°53.311 14.1678 2.342589 18.254789 -3.020363
2011-10-20 06:55:22 51°16.084 2°53.303 14.1746 2.342589 18.254789 -3.020363
2011-10-20 06:55:27 51°16.1 2°53.295 14.1794 2.345894 18.279825 -3.020363
2011-10-20 06:55:32 51°16.115 2°53.286 14.1813 2.350335 18.314551 -3.020363
2011-10-20 06:55:37 51°16.131 2°53.278 14.1845 2.350438 18.312265 -3.020363
2011-10-20 06:55:42 51°16.146 2°53.27 14.19 2.349406 18.300687 -3.020363
2011-10-20 06:55:47 51°16.162 2°53.262 14.1922 2.35333 18.332183 -3.020363
2011-10-20 06:55:52 51°16.178 2°53.253 14.1955 2.35333 18.332183 -3.020363
2011-10-20 06:55:57 51°16.193 2°53.245 14.2012 2.351988 18.318356 -3.020363
2011-10-20 06:56:02 51°16.209 2°53.236 14.2056 2.352814 18.323028 -3.020363
2011-10-20 06:56:07 51°16.224 2°53.227 14.2075 2.350025 18.29688 -3.020363
2011-10-20 06:56:13 51°16.243 2°53.215 14.2112 2.355603 18.342451 -3.020363
2011-10-20 06:56:17 51°16.255 2°53.208 14.215 2.35395 18.326383 -3.020363
2011-10-20 06:56:22 51°16.271 2°53.198 14.217 2.35395 18.326383 -3.020363
2011-10-20 06:56:28 51°16.29 2°53.186 14.2196 2.358288 18.361384 -3.020363
2011-10-20 06:56:33 51°16.305 2°53.176 14.2217 2.355293 18.333475 -3.020363
2011-10-20 06:56:38 51°16.32 2°53.167 14.2247 2.357152 18.347341 -3.020363
2011-10-20 06:56:42 51°16.332 2°53.159 14.2341 2.356015 18.335285 -3.020363
2011-10-20 06:56:47 51°16.348 2°53.151 14.2325 2.362419 18.387481 -3.020363
2011-10-20 06:56:52 51°16.363 2°53.142 14.2364 2.362419 18.387481 -3.020363
2011-10-20 06:56:57 51°16.378 2°53.132 14.2384 2.360353 18.368687 -3.020363
2011-10-20 06:57:03 51°16.396 2°53.121 14.2409 2.366964 18.423039 -3.020363
2011-10-20 06:57:08 51°16.412 2°53.111 14.2419 2.363039 18.387606 -3.020363
2011-10-20 06:57:14 51°16.43 2°53.1 14.2425 2.360457 18.364021 -3.020363
2011-10-20 06:57:17 51°16.439 2°53.093 14.2472 2.362832 18.381881 -3.020363
2011-10-20 06:57:23 51°16.457 2°53.082 14.2488 2.362832 18.381881 -3.020363
2011-10-20 06:57:27 51°16.469 2°53.073 14.2536 2.364382 18.393494 -3.020363
2011-10-20 06:57:34 51°16.49 2°53.059 14.253 2.366344 18.408625 -3.020363
2011-10-20 06:57:37 51°16.499 2°53.052 14.2546 2.366344 18.407434 -3.020363
2011-10-20 06:57:42 51°16.514 2°53.042 14.2562 2.364382 18.389529 -3.020363
2011-10-20 06:57:47 51°16.529 2°53.031 14.2571 2.371715 18.450806 -3.020363
2011-10-20 06:57:53 51°16.547 2°53.018 14.2619 2.371715 18.450806 -3.020363
2011-10-20 06:57:57 51°16.559 2°53.009 14.2677 2.372231 18.454013 -3.020363
2011-10-20 06:58:03 51°16.577 2°52.996 14.2651 2.369443 18.428667 -3.020363
2011-10-20 06:58:07 51°16.59 2°52.987 14.2679 2.370579 18.436756 -3.020363
2011-10-20 06:58:13 51°16.608 2°52.975 14.2687 2.371508 18.443878 -3.020363
2011-10-20 06:58:17 51°16.62 2°52.966 14.2718 2.372748 18.453243 -3.020363
2011-10-20 06:58:23 51°16.639 2°52.953 14.2731 2.372748 18.453243 -3.020363
2011-10-20 06:58:27 51°16.651 2°52.945 14.2783 2.368306 18.414229 -3.020363
2011-10-20 06:58:33 51°16.67 2°52.932 14.2765 2.378842 18.502364 -3.020363
2011-10-20 06:58:38 51°16.685 2°52.922 14.2789 2.371818 18.441353 -3.020363
2011-10-20 06:58:42 51°16.697 2°52.914 14.2818 2.381424 18.521968 -3.020363
2011-10-20 06:58:47 51°16.712 2°52.904 14.2827 2.376466 18.478546 -3.020363
2011-10-20 06:58:52 51°16.727 2°52.895 14.2856 2.376466 18.478546 -3.020363
2011-10-20 06:58:57 51°16.743 2°52.885 14.2841 2.377706 18.487907 -3.020363
2011-10-20 06:59:02 51°16.758 2°52.875 14.2846 2.377086 18.481834 -3.020363
2011-10-20 06:59:07 51°16.772 2°52.866 14.2866 2.378532 18.492953 -3.020363
2011-10-20 06:59:13 51°16.79 2°52.855 14.2914 2.380185 18.50583 -3.020363
2011-10-20 06:59:17 51°16.802 2°52.847 14.29 2.379152 18.495841 -3.020363
2011-10-20 06:59:22 51°16.817 2°52.837 14.2905 2.379152 18.495841 -3.020363
2011-10-20 06:59:28 51°16.836 2°52.826 14.289 2.381217 18.512235 -3.020363
2011-10-20 06:59:32 51°16.848 2°52.818 14.2932 2.379255 18.494729 -3.020363
2011-10-20 06:59:37 51°16.863 2°52.808 14.2903 2.386899 18.559015 -3.020363
2011-10-20 06:59:42 51°16.879 2°52.799 14.2897 2.380908 18.507604 -3.020363
2011-10-20 06:59:47 51°16.894 2°52.789 14.2868 2.381837 18.514722 -3.020363
2011-10-20 06:59:53 51°16.913 2°52.777 14.2885 2.381837 18.514722 -3.020363
2011-10-20 06:59:57 51°16.925 2°52.769 14.2896 2.386899 18.557417 -3.020363
2011-10-20 07:00:02 51°16.941 2°52.759 14.2898 2.380908 18.506011 -3.020363
2011-10-20 07:00:07 51°16.956 2°52.749 14.2917 2.38256 18.519682 -3.020363
2011-10-20 07:00:12 51°16.972 2°52.739 14.2857 2.38318 18.524559 -3.020363
2011-10-20 07:00:17 51°16.988 2°52.73 14.2891 2.384523 18.535991 -3.020363
2011-10-20 07:00:22 51°17.004 2°52.721 14.288 2.384523 18.535991 -3.020363
2011-10-20 07:00:27 51°17.02 2°52.714 14.2858 2.386899 18.556619 -3.020363
2011-10-20 07:00:32 51°17.037 2°52.707 14.2847 2.387105 18.557978 -3.020363
2011-10-20 07:00:37 51°17.053 2°52.7 14.2831 2.385556 18.544786 -3.020363
2011-10-20 07:00:42 51°17.07 2°52.694 14.2852 2.386898 18.55582 -3.020363
2011-10-20 07:00:47 51°17.086 2°52.688 14.2819 2.385762 18.546545 -3.020363
2011-10-20 07:00:52 51°17.103 2°52.683 14.2804 2.385762 18.546545 -3.020363
2011-10-20 07:00:57 51°17.119 2°52.678 14.2806 2.381011 18.506094 -3.020363
2011-10-20 07:01:02 51°17.136 2°52.673 14.2836 2.388964 18.574211 -3.020363
2011-10-20 07:01:07 51°17.152 2°52.668 14.2805 2.389687 18.581168 -3.020363
2011-10-20 07:01:12 51°17.169 2°52.664 14.2772 2.387725 18.564854 -3.020363
2011-10-20 07:01:17 51°17.186 2°52.659 14.2782 2.390514 18.588606 -3.020363
2011-10-20 07:01:22 51°17.203 2°52.655 14.2758 2.390514 18.588606 -3.020363
2011-10-20 07:01:28 51°17.223 2°52.65 14.272 2.385556 18.547181 -3.020363
2011-10-20 07:01:32 51°17.236 2°52.646 14.2759 2.385452 18.5467 -3.020363
2011-10-20 07:01:37 51°17.252 2°52.64 14.274 2.387518 18.564293 -3.020363
2011-10-20 07:01:42 51°17.268 2°52.636 14.2765 2.383283 18.528629 -3.020363
2011-10-20 07:01:47 51°17.284 2°52.63 14.2717 2.394232 18.622686 -3.020363
2011-10-20 07:01:52 51°17.3 2°52.626 14.2707 2.394232 18.622686 -3.020363
2011-10-20 07:01:57 51°17.316 2°52.621 14.2695 2.389481 18.583008 -3.020363
2011-10-20 07:02:03 51°17.335 2°52.615 14.2641 2.386176 18.555653 -3.020363
2011-10-20 07:02:07 51°17.348 2°52.611 14.2679 2.393716 18.62029 -3.020363
2011-10-20 07:02:12 51°17.364 2°52.607 14.2685 2.393303 18.616769 -3.020363
2011-10-20 07:02:17 51°17.38 2°52.602 14.2649 2.393096 18.61541 -3.020363
2011-10-20 07:02:22 51°17.396 2°52.596 14.2644 2.393096 18.61541 -3.020363
2011-10-20 07:02:27 51°17.412 2°52.591 14.2677 2.391753 18.60477 -3.020363
2011-10-20 07:02:32 51°17.429 2°52.587 14.2613 2.390824 18.597249 -3.020363
2011-10-20 07:02:37 51°17.445 2°52.581 14.2609 2.387828 18.572529 -3.020363
2011-10-20 07:02:42 51°17.461 2°52.575 14.2628 2.395989 18.642865 -3.020363
2011-10-20 07:02:47 51°17.478 2°52.569 14.2609 2.393509 18.622138 -3.020363
2011-10-20 07:02:52 51°17.494 2°52.563 14.2621 2.393509 18.622138 -3.020363
2011-10-20 07:02:57 51°17.51 2°52.557 14.2596 2.396195 18.645428 -3.020363
2011-10-20 07:03:02 51°17.527 2°52.551 14.2576 2.385969 18.558688 -3.020363
2011-10-20 07:03:07 51°17.543 2°52.544 14.2591 2.391857 18.609256 -3.020363
2011-10-20 07:03:12 51°17.559 2°52.539 14.2626 2.394233 18.630306 -3.020363
2011-10-20 07:03:17 51°17.575 2°52.534 14.2605 2.392786 18.61798 -3.020363
2011-10-20 07:03:22 51°17.592 2°52.529 14.2596 2.392786 18.61798 -3.020363
2011-10-20 07:03:27 51°17.608 2°52.526 14.2596 2.395266 18.639512 -3.020363
2011-10-20 07:03:33 51°17.628 2°52.52 14.2596 2.385246 18.554526 -3.020363
2011-10-20 07:03:37 51°17.641 2°52.518 14.2583 2.390411 18.598935 -3.020363
2011-10-20 07:03:42 51°17.657 2°52.514 14.2617 2.395885 18.645598 -3.020363
2011-10-20 07:03:48 51°17.676 2°52.511 14.2623 2.393613 18.626227 -3.020363
2011-10-20 07:03:53 51°17.692 2°52.508 14.2637 2.393613 18.626227 -3.020363
2011-10-20 07:03:57 51°17.705 2°52.505 14.2624 2.396815 18.653523 -3.020363
2011-10-20 07:04:02 51°17.722 2°52.504 14.2601 2.394026 18.629749 -3.020363
2011-10-20 07:04:08 51°17.742 2°52.501 14.2603 2.392786 18.619183 -3.020363
2011-10-20 07:04:12 51°17.755 2°52.5 14.2614 2.386279 18.564127 -3.020363
2011-10-20 07:04:18 51°17.775 2°52.498 14.2613 2.40012 18.682107 -3.020363
2011-10-20 07:04:23 51°17.792 2°52.497 14.2626 2.40012 18.682107 -3.020363
2011-10-20 07:04:27 51°17.806 2°52.496 14.2644 2.390514 18.599815 -3.020363
2011-10-20 07:04:32 51°17.823 2°52.495 14.2615 2.399501 18.676018 -3.020363
2011-10-20 07:04:37 51°17.839 2°52.494 14.263 2.402496 18.701963 -3.020363
2011-10-20 07:04:42 51°17.856 2°52.493 14.2617 2.395266 18.640315 -3.020363
2011-10-20 07:04:47 51°17.874 2°52.493 14.2616 2.396505 18.651283 -3.020363
2011-10-20 07:04:53 51°17.894 2°52.491 14.2615 2.396505 18.651283 -3.020363
2011-10-20 07:04:57 51°17.908 2°52.491 14.2634 2.393303 18.623585 -3.020363
2011-10-20 07:05:02 51°17.925 2°52.49 14.2626 2.399294 18.674659 -3.020363
2011-10-20 07:05:07 51°17.942 2°52.49 14.2634 2.397022 18.654882 -3.020363
2011-10-20 07:05:12 51°17.959 2°52.489 14.2641 2.395989 18.646077 -3.020363
2011-10-20 07:05:17 51°17.976 2°52.488 14.2645 2.392063 18.61262 -3.020363
2011-10-20 07:05:23 51°17.997 2°52.488 14.2637 2.392063 18.61262 -3.020363
2011-10-20 07:05:28 51°18.014 2°52.487 14.2643 2.402083 18.69844 -3.020363
2011-10-20 07:05:32 51°18.028 2°52.487 14.2664 2.400637 18.686108 -3.020363
2011-10-20 07:05:37 51°18.044 2°52.486 14.2665 2.402393 18.700679 -3.020363
2011-10-20 07:05:43 51°18.064 2°52.485 14.2655 2.398054 18.663688 -3.020363
2011-10-20 07:05:48 51°18.081 2°52.484 14.2656 2.397745 18.661047 -3.020363
2011-10-20 07:05:53 51°18.097 2°52.483 14.2666 2.397745 18.661047 -3.020363
2011-10-20 07:05:57 51°18.111 2°52.483 14.2664 2.392786 18.618381 -3.020363
2011-10-20 07:06:02 51°18.128 2°52.481 14.2656 2.39196 18.611338 -3.020363
2011-10-20 07:06:08 51°18.147 2°52.479 14.2655 2.391753 18.609177 -3.020363
2011-10-20 07:06:13 51°18.164 2°52.478 14.2672 2.394233 18.629905 -3.020363
2011-10-20 07:06:17 51°18.177 2°52.476 14.2692 2.396712 18.651036 -3.020363
2011-10-20 07:06:22 51°18.194 2°52.474 14.2692 2.396712 18.651036 -3.020363
2011-10-20 07:06:27 51°18.21 2°52.472 14.2686 2.398881 18.669527 -3.020363
2011-10-20 07:06:32 51°18.227 2°52.47 14.2716 2.40198 18.695948 -3.020363
2011-10-20 07:06:37 51°18.244 2°52.468 14.271 2.403013 18.704756 -3.020363
2011-10-20 07:06:42 51°18.26 2°52.466 14.2708 2.398364 18.665124 -3.020363
2011-10-20 07:06:47 51°18.276 2°52.464 14.2712 2.399707 18.67617 -3.020363
2011-10-20 07:06:52 51°18.293 2°52.462 14.2718 2.399707 18.67617 -3.020363
2011-10-20 07:06:57 51°18.31 2°52.46 14.2719 2.400637 18.683292 -3.020363
2011-10-20 07:07:02 51°18.326 2°52.458 14.2737 2.402806 18.701786 -3.020363
2011-10-20 07:07:07 51°18.342 2°52.456 14.2762 2.398158 18.661756 -3.020363
2011-10-20 07:07:12 51°18.359 2°52.453 14.2745 2.403426 18.706265 -3.020363
2011-10-20 07:07:17 51°18.375 2°52.451 14.2738 2.404356 18.713789 -3.020363
2011-10-20 07:07:22 51°18.391 2°52.449 14.2758 2.404356 18.713789 -3.020363
2011-10-20 07:07:27 51°18.408 2°52.447 14.275 2.407454 18.740214 -3.020363
2011-10-20 07:07:32 51°18.424 2°52.445 14.2766 2.399914 18.675519 -3.020363
2011-10-20 07:07:37 51°18.44 2°52.443 14.2749 2.405285 18.720909 -3.020363
2011-10-20 07:07:42 51°18.456 2°52.441 14.2787 2.405492 18.722268 -3.020363
2011-10-20 07:07:47 51°18.473 2°52.439 14.2764 2.402909 18.699848 -3.020363
2011-10-20 07:07:52 51°18.49 2°52.438 14.2752 2.402909 18.699848 -3.020363
2011-10-20 07:07:57 51°18.507 2°52.436 14.2741 2.402496 18.696326 -3.020363
2011-10-20 07:08:02 51°18.523 2°52.434 14.275 2.40167 18.688879 -3.020363
2011-10-20 07:08:07 51°18.54 2°52.433 14.2769 2.406628 18.730747 -3.020363
2011-10-20 07:08:12 51°18.556 2°52.432 14.2782 2.397641 18.65414 -3.020363
2011-10-20 07:08:18 51°18.575 2°52.431 14.2761 2.405698 18.722417 -3.020363
2011-10-20 07:08:22 51°18.588 2°52.43 14.2762 2.405698 18.722417 -3.020363
2011-10-20 07:08:27 51°18.604 2°52.428 14.2778 2.402393 18.694238 -3.020363
2011-10-20 07:08:33 51°18.623 2°52.428 14.2747 2.407764 18.740032 -3.020363
2011-10-20 07:08:37 51°18.636 2°52.427 14.2737 2.404872 18.715372 -3.020363
2011-10-20 07:08:42 51°18.652 2°52.427 14.2741 2.402083 18.691596 -3.020363
2011-10-20 07:08:47 51°18.669 2°52.425 14.274 2.402186 18.692074 -3.020363
2011-10-20 07:08:53 51°18.688 2°52.424 14.2729 2.402186 18.692074 -3.020363
2011-10-20 07:08:57 51°18.701 2°52.423 14.2726 2.401876 18.689433 -3.020363
2011-10-20 07:09:02 51°18.717 2°52.422 14.2708 2.410347 18.762053 -3.020363
2011-10-20 07:09:07 51°18.733 2°52.421 14.2693 2.404252 18.710088 -3.020363
2011-10-20 07:09:12 51°18.749 2°52.419 14.2705 2.404665 18.714416 -3.020363
2011-10-20 07:09:17 51°18.765 2°52.418 14.2722 2.403839 18.707371 -3.020363
2011-10-20 07:09:22 51°18.782 2°52.416 14.272 2.403839 18.707371 -3.020363
2011-10-20 07:09:27 51°18.798 2°52.414 14.2695 2.407144 18.735957 -3.020363
2011-10-20 07:09:32 51°18.815 2°52.413 14.2717 2.409004 18.751812 -3.020363
2011-10-20 07:09:37 51°18.831 2°52.411 14.2717 2.41169 18.775121 -3.020363
2011-10-20 07:09:42 51°18.848 2°52.409 14.2735 2.409004 18.75262 -3.020363
2011-10-20 07:09:47 51°18.865 2°52.407 14.2745 2.40229 18.695772 -3.020363
2011-10-20 07:09:52 51°18.881 2°52.404 14.2726 2.40229 18.695772 -3.020363
2011-10-20 07:09:57 51°18.898 2°52.402 14.2722 2.41107 18.770644 -3.020363
2011-10-20 07:10:02 51°18.914 2°52.4 14.2734 2.404769 18.716909 -3.020363
2011-10-20 07:10:08 51°18.932 2°52.398 14.2757 2.409934 18.760952 -3.020363
2011-10-20 07:10:13 51°18.948 2°52.396 14.2759 2.404769 18.716909 -3.020363
2011-10-20 07:10:17 51°18.961 2°52.394 14.2789 2.40983 18.759668 -3.020363
2011-10-20 07:10:23 51°18.981 2°52.392 14.2775 2.40983 18.759668 -3.020363
2011-10-20 07:10:27 51°18.994 2°52.391 14.2815 2.403529 18.705534 -3.020363
2011-10-20 07:10:32 51°19.01 2°52.39 14.2821 2.405388 18.721387 -3.020363
2011-10-20 07:10:37 51°19.027 2°52.389 14.2838 2.408384 18.746527 -3.020363
2011-10-20 07:10:42 51°19.043 2°52.388 14.2859 2.404665 18.714416 -3.020363
2011-10-20 07:10:47 51°19.06 2°52.388 14.2858 2.406525 18.730269 -3.020363
2011-10-20 07:10:53 51°19.079 2°52.387 14.2896 2.406525 18.730269 -3.020363
2011-10-20 07:10:58 51°19.095 2°52.386 14.2885 2.407764 18.740032 -3.020363
2011-10-20 07:11:03 51°19.11 2°52.385 14.2921 2.407661 18.738344 -3.020363
2011-10-20 07:11:08 51°19.126 2°52.386 14.291 2.402909 18.697433 -3.020363
2011-10-20 07:11:13 51°19.141 2°52.386 14.2914 2.403736 18.703671 -3.020363
2011-10-20 07:11:19 51°19.16 2°52.385 14.2935 2.401153 18.680856 -3.020363
2011-10-20 07:11:24 51°19.175 2°52.384 14.2953 2.401153 18.680856 -3.020363
2011-10-20 07:11:29 51°19.191 2°52.384 14.2945 2.400947 18.678291 -3.020363
2011-10-20 07:11:34 51°19.206 2°52.383 14.2966 2.40921 18.747923 -3.020363
2011-10-20 07:11:39 51°19.222 2°52.382 14.2971 2.39103 18.591805 -3.020363
2011-10-20 07:11:45 51°19.24 2°52.381 14.2958 2.405698 18.716373 -3.020363
2011-10-20 07:11:49 51°19.253 2°52.379 14.2984 2.406731 18.724774 -3.020363
2011-10-20 07:11:54 51°19.269 2°52.378 14.2976 2.406731 18.724774 -3.020363
2011-10-20 07:11:59 51°19.285 2°52.375 14.2965 2.397848 18.648272 -3.020363
2011-10-20 07:12:04 51°19.301 2°52.374 14.2946 2.408694 18.73989 -3.020363
2011-10-20 07:12:09 51°19.318 2°52.371 14.2936 2.394955 18.622433 -3.020363
2011-10-20 07:12:14 51°19.333 2°52.369 14.2919 2.407144 18.725878 -3.020363
2011-10-20 07:12:19 51°19.349 2°52.367 14.2904 2.409417 18.744843 -3.020363
2011-10-20 07:12:24 51°19.365 2°52.365 14.288 2.407351 18.726833 -3.020363
2011-10-20 07:12:29 51°19.381 2°52.362 14.2829 2.407351 18.726833 -3.020363
2011-10-20 07:12:33 51°19.394 2°52.36 14.279 2.404665 18.703947 -3.020363
2011-10-20 07:12:38 51°19.411 2°52.358 14.2757 2.406008 18.715389 -3.020363
2011-10-20 07:12:44 51°19.43 2°52.357 14.2715 2.403942 18.69859 -3.020363
2011-10-20 07:12:49 51°19.446 2°52.355 14.2689 2.398158 18.649708 -3.020363
2011-10-20 07:12:54 51°19.462 2°52.353 14.2639 2.398158 18.649708 -3.020363
2011-10-20 07:12:59 51°19.478 2°52.352 14.2574 2.406008 18.717 -3.020363
2011-10-20 07:13:04 51°19.494 2°52.351 14.2533 2.406628 18.723491 -3.020363
2011-10-20 07:13:09 51°19.51 2°52.349 14.2498 2.399604 18.665241 -3.020363
2011-10-20 07:13:13 51°19.523 2°52.348 14.2417 2.403426 18.699017 -3.020363
2011-10-20 07:13:18 51°19.539 2°52.347 14.238 2.407454 18.735776 -3.020363
2011-10-20 07:13:23 51°19.555 2°52.345 14.2343 2.407454 18.735776 -3.020363
2011-10-20 07:13:28 51°19.571 2°52.343 14.2285 2.40136 18.685835 -3.020363
2011-10-20 07:13:33 51°19.587 2°52.341 14.2227 2.407041 18.737093 -3.020363
2011-10-20 07:13:37 51°19.601 2°52.34 14.2189 2.409107 18.75754 -3.020363
2011-10-20 07:13:42 51°19.616 2°52.338 14.2153 2.404665 18.721672 -3.020363
2011-10-20 07:13:47 51°19.632 2°52.337 14.2107 2.408281 18.754934 -3.020363
2011-10-20 07:13:52 51°19.648 2°52.335 14.2009 2.408281 18.754934 -3.020363
2011-10-20 07:13:57 51°19.665 2°52.333 14.1967 2.406318 18.741017 -3.020363
2011-10-20 07:14:02 51°19.681 2°52.331 14.1909 2.405595 18.73727 -3.020363
2011-10-20 07:14:07 51°19.698 2°52.328 14.1857 2.407661 18.757729 -3.020363
2011-10-20 07:14:12 51°19.714 2°52.326 14.1814 2.407971 18.762801 -3.020363
2011-10-20 07:14:17 51°19.731 2°52.324 14.1764 2.410141 18.784154 -3.020363
2011-10-20 07:14:22 51°19.747 2°52.322 14.175 2.410141 18.784154 -3.020363
2011-10-20 07:14:27 51°19.764 2°52.32 14.17 2.403839 18.733187 -3.020363
2011-10-20 07:14:33 51°19.784 2°52.318 14.1642 2.401877 18.719662 -3.020363
2011-10-20 07:14:37 51°19.797 2°52.317 14.1537 2.404149 18.742704 -3.020363
2011-10-20 07:14:42 51°19.813 2°52.315 14.1533 2.402393 18.730132 -3.020363
2011-10-20 07:14:47 51°19.83 2°52.314 14.1492 2.406732 18.770025 -3.020363
2011-10-20 07:14:52 51°19.846 2°52.312 14.1419 2.406732 18.770025 -3.020363
2011-10-20 07:14:57 51°19.862 2°52.31 14.1474 2.406319 18.76933 -3.020363
2011-10-20 07:15:02 51°19.879 2°52.309 14.1505 2.41231 18.822159 -3.020363
2011-10-20 07:15:07 51°19.895 2°52.309 14.1364 2.405183 18.763672 -3.020363
2011-10-20 07:15:12 51°19.911 2°52.307 14.1323 2.410554 18.813241 -3.020363
2011-10-20 07:15:17 51°19.928 2°52.306 14.1274 2.401464 18.738367 -3.020363
2011-10-20 07:15:22 51°19.944 2°52.305 14.1224 2.401464 18.738367 -3.020363
2011-10-20 07:15:27 51°19.961 2°52.303 14.1181 2.402187 18.746977 -3.020363
2011-10-20 07:15:32 51°19.977 2°52.302 14.1175 2.402187 18.749002 -3.020363
2011-10-20 07:15:37 51°19.994 2°52.3 14.1147 2.409934 18.816882 -3.020363
2011-10-20 07:15:42 51°20.01 2°52.298 14.1099 2.403117 18.761005 -3.020363
2011-10-20 07:15:47 51°20.027 2°52.297 14.1064 2.400638 18.742234 -3.020363
2011-10-20 07:15:52 51°20.043 2°52.296 14.1051 2.400638 18.742234 -3.020363
2011-10-20 07:15:57 51°20.059 2°52.294 14.1057 2.397332 18.716394 -3.020363
2011-10-20 07:16:02 51°20.076 2°52.293 14.1002 2.399295 18.73561 -3.020363
2011-10-20 07:16:07 51°20.093 2°52.291 14.0991 2.402601 18.765916 -3.020363
2011-10-20 07:16:12 51°20.11 2°52.29 14.0961 2.400948 18.753397 -3.020363
2011-10-20 07:16:17 51°20.127 2°52.289 14.0924 2.400741 18.753657 -3.020363
2011-10-20 07:16:22 51°20.143 2°52.287 14.0873 2.400741 18.753657 -3.020363
2011-10-20 07:16:27 51°20.16 2°52.286 14.0871 2.401258 18.760512 -3.020363
2011-10-20 07:16:32 51°20.177 2°52.284 14.0823 2.397229 18.727657 -3.020363
2011-10-20 07:16:37 51°20.193 2°52.282 14.0819 2.401258 18.763353 -3.020363
2011-10-20 07:16:42 51°20.21 2°52.28 14.0825 2.397229 18.730493 -3.020363
2011-10-20 07:16:47 51°20.226 2°52.278 14.0768 2.401774 18.770617 -3.020363
2011-10-20 07:16:52 51°20.242 2°52.276 14.076 2.401774 18.770617 -3.020363
2011-10-20 07:16:57 51°20.259 2°52.274 14.0751 2.40353 18.787685 -3.020363
2011-10-20 07:17:02 51°20.275 2°52.271 14.0755 2.401981 18.776449 -3.020363
2011-10-20 07:17:07 51°20.291 2°52.268 14.0687 2.391135 18.684809 -3.020363
2011-10-20 07:17:13 51°20.31 2°52.265 14.0687 2.399915 18.761195 -3.020363
2011-10-20 07:17:18 51°20.325 2°52.263 14.0672 2.399709 18.760644 -3.020363
2011-10-20 07:17:24 51°20.343 2°52.26 14.0679 2.399709 18.760644 -3.020363
2011-10-20 07:17:29 51°20.358 2°52.258 14.0631 2.401568 18.777788 -3.020363
2011-10-20 07:17:34 51°20.374 2°52.256 14.0608 2.397953 18.748448 -3.020363
2011-10-20 07:17:39 51°20.39 2°52.254 14.0576 2.397849 18.748375 -3.020363
2011-10-20 07:17:44 51°20.406 2°52.252 14.0587 2.392168 18.700532 -3.020363
2011-10-20 07:17:49 51°20.422 2°52.249 14.0593 2.394337 18.720324 -3.020363
2011-10-20 07:17:53 51°20.435 2°52.247 14.0528 2.394337 18.720324 -3.020363
2011-10-20 07:17:58 51°20.451 2°52.244 14.0533 2.401052 18.77865 -3.020363
2011-10-20 07:18:03 51°20.467 2°52.242 14.0499 2.399709 18.768365 -3.020363
2011-10-20 07:18:08 51°20.483 2°52.239 14.0478 2.398469 18.758964 -3.020363
2011-10-20 07:18:13 51°20.499 2°52.236 14.0427 2.399502 18.769035 -3.020363
2011-10-20 07:18:17 51°20.512 2°52.234 14.0504 2.394234 18.724711 -3.020363
2011-10-20 07:18:22 51°20.528 2°52.231 14.0459 2.394234 18.724711 -3.020363
2011-10-20 07:18:27 51°20.544 2°52.229 14.0424 2.399915 18.774609 -3.020363
2011-10-20 07:18:32 51°20.561 2°52.228 14.0445 2.39568 18.739131 -3.020363
2011-10-20 07:18:37 51°20.577 2°52.226 14.0423 2.393821 18.724417 -3.020363
2011-10-20 07:18:42 51°20.593 2°52.225 14.0377 2.390722 18.699084 -3.020363
2011-10-20 07:18:47 51°20.609 2°52.224 14.0432 2.386281 18.661844 -3.020363
2011-10-20 07:18:53 51°20.627 2°52.223 14.0374 2.386281 18.661844 -3.020363
2011-10-20 07:18:58 51°20.643 2°52.222 14.0378 2.39785 18.761377 -3.020363
2011-10-20 07:19:03 51°20.659 2°52.221 14.0312 2.396817 18.753743 -3.020363
2011-10-20 07:19:08 51°20.674 2°52.22 14.032 2.391962 18.712948 -3.020363
2011-10-20 07:19:13 51°20.69 2°52.218 14.0298 2.393098 18.723091 -3.020363
2011-10-20 07:19:17 51°20.702 2°52.218 14.0275 2.393924 18.731391 -3.020363
2011-10-20 07:19:22 51°20.718 2°52.216 14.0301 2.393924 18.731391 -3.020363
2011-10-20 07:19:27 51°20.734 2°52.215 14.0258 2.396197 18.751682 -3.020363
2011-10-20 07:19:32 51°20.75 2°52.213 14.0288 2.39723 18.761351 -3.020363
2011-10-20 07:19:37 51°20.766 2°52.212 14.0229 2.397127 18.761279 -3.020363
2011-10-20 07:19:42 51°20.782 2°52.21 14.0236 2.396713 18.758957 -3.020363
2011-10-20 07:19:47 51°20.799 2°52.208 14.0231 2.399399 18.782799 -3.020363
2011-10-20 07:19:52 51°20.815 2°52.206 14.0197 2.399399 18.782799 -3.020363
2011-10-20 07:19:57 51°20.831 2°52.203 14.0228 2.401052 18.798196 -3.020363
2011-10-20 07:20:02 51°20.847 2°52.201 14.0258 2.401672 18.803919 -3.020363
2011-10-20 07:20:07 51°20.863 2°52.199 14.0198 2.396817 18.76269 -3.020363
2011-10-20 07:20:12 51°20.879 2°52.196 14.0169 2.397127 18.766161 -3.020363
2011-10-20 07:20:17 51°20.895 2°52.193 14.0167 2.39692 18.764797 -3.020363
2011-10-20 07:20:22 51°20.911 2°52.19 14.0167 2.39692 18.764797 -3.020363
2011-10-20 07:20:27 51°20.928 2°52.187 14.0166 2.389896 18.705382 -3.020363
2011-10-20 07:20:32 51°20.944 2°52.185 14.0142 2.393821 18.739037 -3.020363
2011-10-20 07:20:37 51°20.96 2°52.182 14.0132 2.395267 18.751844 -3.020363
2011-10-20 07:20:42 51°20.977 2°52.179 14.013 2.398986 18.784552 -3.020363
2011-10-20 07:20:47 51°20.993 2°52.177 14.0151 2.395267 18.753471 -3.020363
2011-10-20 07:20:52 51°21.009 2°52.176 14.0151 2.395267 18.753471 -3.020363
2011-10-20 07:20:57 51°21.026 2°52.175 14.0114 2.395887 18.7596 -3.020363
2011-10-20 07:21:02 51°21.042 2°52.175 14.0089 2.395371 18.755578 -3.020363
2011-10-20 07:21:07 51°21.059 2°52.174 14.0097 2.400742 18.802062 -3.020363
2011-10-20 07:21:12 51°21.075 2°52.175 14.0053 2.397437 18.774112 -3.020363
2011-10-20 07:21:17 51°21.092 2°52.175 14.0079 2.400535 18.800697 -3.020363
2011-10-20 07:21:22 51°21.109 2°52.176 14.0096 2.400535 18.800697 -3.020363
2011-10-20 07:21:27 51°21.126 2°52.176 14.0099 2.395267 18.755505 -3.020363
2011-10-20 07:21:32 51°21.143 2°52.177 14.01 2.394751 18.752296 -3.020363
2011-10-20 07:21:37 51°21.16 2°52.178 14.0101 2.404564 18.837308 -3.020363
2011-10-20 07:21:42 51°21.177 2°52.18 14.0116 2.39661 18.769467 -3.020363
2011-10-20 07:21:47 51°21.194 2°52.18 14.0165 2.395371 18.759647 -3.020363
2011-10-20 07:21:53 51°21.214 2°52.182 14.0135 2.395371 18.759647 -3.020363
2011-10-20 07:21:57 51°21.227 2°52.183 14.0168 2.390929 18.721547 -3.020363
2011-10-20 07:22:02 51°21.243 2°52.185 14.02 2.391446 18.725977 -3.020363
2011-10-20 07:22:07 51°21.26 2°52.186 14.0196 2.394131 18.748607 -3.020363
2011-10-20 07:22:12 51°21.276 2°52.187 14.0219 2.391549 18.726457 -3.020363
2011-10-20 07:22:17 51°21.291 2°52.188 14.0236 2.398676 18.787191 -3.020363
2011-10-20 07:22:22 51°21.308 2°52.19 14.0263 2.398676 18.787191 -3.020363
2011-10-20 07:22:27 51°21.324 2°52.19 14.0284 2.397023 18.772604 -3.020363
2011-10-20 07:22:32 51°21.34 2°52.191 14.0302 2.396197 18.764701 -3.020363
2011-10-20 07:22:37 51°21.357 2°52.192 14.0283 2.394441 18.748824 -3.020363
2011-10-20 07:22:42 51°21.373 2°52.191 14.0285 2.395061 18.753327 -3.020363
2011-10-20 07:22:47 51°21.389 2°52.191 14.0326 2.398883 18.785295 -3.020363
2011-10-20 07:22:52 51°21.406 2°52.191 14.0291 2.398883 18.785295 -3.020363
2011-10-20 07:22:57 51°21.423 2°52.191 14.0285 2.399193 18.787139 -3.020363
2011-10-20 07:23:02 51°21.439 2°52.19 14.028 2.395164 18.751365 -3.020363
2011-10-20 07:23:07 51°21.456 2°52.19 14.0284 2.395164 18.750552 -3.020363
2011-10-20 07:23:12 51°21.472 2°52.189 14.0284 2.392892 18.730253 -3.020363
2011-10-20 07:23:17 51°21.488 2°52.188 14.0297 2.400225 18.792738 -3.020363
2011-10-20 07:23:22 51°21.505 2°52.188 14.0259 2.400225 18.792738 -3.020363
2011-10-20 07:23:27 51°21.522 2°52.187 14.0276 2.401982 18.807393 -3.020363
2011-10-20 07:23:33 51°21.542 2°52.187 14.0265 2.396713 18.762211 -3.020363
2011-10-20 07:23:37 51°21.555 2°52.186 14.0255 2.395474 18.751989 -3.020363
2011-10-20 07:23:42 51°21.571 2°52.186 14.0257 2.394648 18.744496 -3.020363
2011-10-20 07:23:47 51°21.587 2°52.185 14.0317 2.391136 18.714791 -3.020363
2011-10-20 07:23:52 51°21.603 2°52.186 14.0267 2.391136 18.714791 -3.020363
2011-10-20 07:23:57 51°21.619 2°52.186 14.0283 2.400122 18.791852 -3.020363
2011-10-20 07:24:02 51°21.635 2°52.187 14.0284 2.392168 18.723647 -3.020363
2011-10-20 07:24:07 51°21.651 2°52.188 14.0292 2.394441 18.743132 -3.020363
2011-10-20 07:24:12 51°21.666 2°52.188 14.0327 2.393201 18.73291 -3.020363
2011-10-20 07:24:17 51°21.682 2°52.189 14.0354 2.394338 18.742652 -3.020363
2011-10-20 07:24:22 51°21.698 2°52.19 14.0335 2.394338 18.742652 -3.020363
2011-10-20 07:24:27 51°21.715 2°52.19 14.038 2.399399 18.785243 -3.020363
2011-10-20 07:24:33 51°21.734 2°52.191 14.0377 2.402705 18.813595 -3.020363
2011-10-20 07:24:37 51°21.747 2°52.192 14.0411 2.394028 18.738776 -3.020363
2011-10-20 07:24:42 51°21.763 2°52.193 14.0439 2.400122 18.79063 -3.020363
2011-10-20 07:24:47 51°21.779 2°52.194 14.0459 2.397953 18.77162 -3.020363
2011-10-20 07:24:52 51°21.795 2°52.195 14.0503 2.397953 18.77162 -3.020363
2011-10-20 07:24:57 51°21.812 2°52.196 14.0533 2.395061 18.746007 -3.020363
2011-10-20 07:25:02 51°21.828 2°52.197 14.0588 2.397953 18.770399 -3.020363
2011-10-20 07:25:07 51°21.844 2°52.198 14.0631 2.401672 18.801473 -3.020363
2011-10-20 07:25:12 51°21.861 2°52.2 14.0654 2.394957 18.742682 -3.020363
2011-10-20 07:25:17 51°21.877 2°52.201 14.0695 2.39754 18.763601 -3.020363
2011-10-20 07:25:22 51°21.894 2°52.202 14.0731 2.39754 18.763601 -3.020363
2011-10-20 07:25:27 51°21.91 2°52.203 14.0747 2.401052 18.79249 -3.020363
2011-10-20 07:25:33 51°21.929 2°52.205 14.0787 2.395474 18.743046 -3.020363
2011-10-20 07:25:38 51°21.945 2°52.205 14.0831 2.400329 18.782626 -3.020363
2011-10-20 07:25:43 51°21.961 2°52.206 14.0861 2.397643 18.757573 -3.020363
2011-10-20 07:25:48 51°21.977 2°52.207 14.0883 2.403118 18.80246 -3.020363
2011-10-20 07:25:53 51°21.994 2°52.207 14.0921 2.403118 18.80246 -3.020363
2011-10-20 07:25:57 51°22.007 2°52.207 14.0943 2.396713 18.745544 -3.020363
2011-10-20 07:26:02 51°22.023 2°52.206 14.0985 2.400845 18.779321 -3.020363
2011-10-20 07:26:07 51°22.04 2°52.206 14.0991 2.397333 18.747605 -3.020363
2011-10-20 07:26:13 51°22.059 2°52.206 14.1006 2.397849 18.749999 -3.020363
2011-10-20 07:26:17 51°22.073 2°52.205 14.102 2.407249 18.828905 -3.020363
2011-10-20 07:26:22 51°22.089 2°52.204 14.1037 2.407249 18.828905 -3.020363
2011-10-20 07:26:27 51°22.106 2°52.205 14.1048 2.39599 18.730017 -3.020363
2011-10-20 07:26:32 51°22.123 2°52.205 14.1061 2.392994 18.702748 -3.020363
2011-10-20 07:26:37 51°22.139 2°52.204 14.1076 2.397539 18.740039 -3.020363
2011-10-20 07:26:42 51°22.156 2°52.205 14.1073 2.397229 18.736169 -3.020363
2011-10-20 07:26:47 51°22.172 2°52.204 14.108 2.398882 18.748697 -3.020363
2011-10-20 07:26:53 51°22.193 2°52.203 14.1088 2.398882 18.748697 -3.020363
2011-10-20 07:26:57 51°22.206 2°52.203 14.1087 2.395267 18.716531 -3.020363
2011-10-20 07:27:02 51°22.222 2°52.203 14.111 2.395473 18.717489 -3.020363
2011-10-20 07:27:08 51°22.242 2°52.203 14.1125 2.393821 18.702535 -3.020363
2011-10-20 07:27:13 51°22.258 2°52.203 14.1155 2.392271 18.688467 -3.020363
2011-10-20 07:27:18 51°22.274 2°52.203 14.1162 2.402601 18.776473 -3.020363
2011-10-20 07:27:23 51°22.29 2°52.203 14.1214 2.402601 18.776473 -3.020363
2011-10-20 07:27:28 51°22.306 2°52.203 14.1234 2.396196 18.720842 -3.020363
2011-10-20 07:27:33 51°22.322 2°52.203 14.1275 2.399089 18.745597 -3.020363
2011-10-20 07:27:37 51°22.335 2°52.204 14.1315 2.400535 18.757164 -3.020363
2011-10-20 07:27:42 51°22.352 2°52.205 14.1378 2.399502 18.747511 -3.020363
2011-10-20 07:27:47 51°22.368 2°52.205 14.1444 2.401774 18.76615 -3.020363
2011-10-20 07:27:52 51°22.384 2°52.206 14.1501 2.401774 18.76615 -3.020363
2011-10-20 07:27:57 51°22.401 2°52.206 14.1538 2.406216 18.802953 -3.020363
2011-10-20 07:28:02 51°22.417 2°52.207 14.1567 2.398056 18.731487 -3.020363
2011-10-20 07:28:07 51°22.434 2°52.208 14.158 2.400535 18.751078 -3.020363
2011-10-20 07:28:12 51°22.45 2°52.209 14.1606 2.400638 18.749935 -3.020363
2011-10-20 07:28:17 51°22.467 2°52.21 14.1611 2.401568 18.755455 -3.020363
2011-10-20 07:28:22 51°22.483 2°52.21 14.1625 2.401568 18.755455 -3.020363
2011-10-20 07:28:27 51°22.5 2°52.212 14.1645 2.401154 18.749488 -3.020363
2011-10-20 07:28:32 51°22.517 2°52.212 14.1675 2.400018 18.736934 -3.020363
2011-10-20 07:28:37 51°22.534 2°52.214 14.1685 2.401154 18.743815 -3.020363
2011-10-20 07:28:42 51°22.55 2°52.215 14.1699 2.401877 18.748378 -3.020363
2011-10-20 07:28:47 51°22.567 2°52.216 14.1729 2.399192 18.723796 -3.020363
2011-10-20 07:28:53 51°22.587 2°52.217 14.1731 2.399192 18.723796 -3.020363
2011-10-20 07:28:57 51°22.6 2°52.218 14.173 2.400844 18.736712 -3.020363
2011-10-20 07:29:02 51°22.617 2°52.219 14.173 2.400534 18.732848 -3.020363
2011-10-20 07:29:07 51°22.634 2°52.22 14.1744 2.401464 18.739581 -3.020363
2011-10-20 07:29:12 51°22.65 2°52.222 14.1744 2.399501 18.721591 -3.020363
2011-10-20 07:29:17 51°22.667 2°52.223 14.1757 2.405596 18.772878 -3.020363
2011-10-20 07:29:22 51°22.684 2°52.223 14.175 2.405596 18.772878 -3.020363
2011-10-20 07:29:27 51°22.7 2°52.223 14.1768 2.398055 18.707212 -3.020363
2011-10-20 07:29:32 51°22.717 2°52.224 14.1775 2.40322 18.750543 -3.020363
2011-10-20 07:29:37 51°22.733 2°52.224 14.1764 2.407558 18.787223 -3.020363
2011-10-20 07:29:42 51°22.75 2°52.224 14.1756 2.401051 18.731194 -3.020363
2011-10-20 07:29:47 51°22.767 2°52.224 14.1761 2.401671 18.735681 -3.020363
2011-10-20 07:29:52 51°22.783 2°52.225 14.1773 2.401671 18.735681 -3.020363
2011-10-20 07:29:57 51°22.8 2°52.226 14.1759 2.401257 18.731746 -3.020363
2011-10-20 07:30:02 51°22.816 2°52.226 14.1765 2.400224 18.722919 -3.020363
2011-10-20 07:30:07 51°22.833 2°52.227 14.1776 2.404253 18.756941 -3.020363
2011-10-20 07:30:12 51°22.85 2°52.226 14.1776 2.407249 18.78214 -3.020363
2011-10-20 07:30:17 51°22.867 2°52.226 14.1789 2.401567 18.733585 -3.020363
2011-10-20 07:30:22 51°22.883 2°52.226 14.1793 2.401567 18.733585 -3.020363
2011-10-20 07:30:27 51°22.899 2°52.224 14.1836 2.408385 18.791853 -3.020363
2011-10-20 07:30:32 51°22.916 2°52.224 14.1827 2.400844 18.727406 -3.020363
2011-10-20 07:30:37 51°22.932 2°52.223 14.1909 2.410244 18.807342 -3.020363
2011-10-20 07:30:42 51°22.949 2°52.223 14.2046 2.405183 18.764077 -3.020363
2011-10-20 07:30:47 51°22.966 2°52.223 14.2145 2.406732 18.77732 -3.020363
2011-10-20 07:30:52 51°22.983 2°52.222 14.2235 2.406732 18.77732 -3.020363
2011-10-20 07:30:57 51°23 2°52.222 14.2336 2.410554 18.809585 -3.020363
2011-10-20 07:31:02 51°23.016 2°52.222 14.2506 2.401154 18.728841 -3.020363
2011-10-20 07:31:07 51°23.033 2°52.222 14.2613 2.407868 18.785004 -3.020363
2011-10-20 07:31:12 51°23.05 2°52.223 14.2752 2.410141 18.802805 -3.020363
2011-10-20 07:31:17 51°23.066 2°52.222 14.2821 2.398365 18.698553 -3.020363
2011-10-20 07:31:22 51°23.082 2°52.224 14.2919 2.398365 18.698553 -3.020363
2011-10-20 07:31:27 51°23.098 2°52.224 14.304 2.406112 18.759871 -3.020363
2011-10-20 07:31:32 51°23.115 2°52.223 14.3163 2.397848 18.683659 -3.020363
2011-10-20 07:31:37 51°23.131 2°52.223 14.324 2.403323 18.725144 -3.020363
2011-10-20 07:31:43 51°23.149 2°52.223 14.3297 2.403116 18.718134 -3.020363
2011-10-20 07:31:48 51°23.164 2°52.222 14.3386 2.402186 18.704155 -3.020363
2011-10-20 07:31:53 51°23.18 2°52.223 14.3507 2.402186 18.704155 -3.020363
2011-10-20 07:31:57 51°23.192 2°52.222 14.3604 2.408074 18.747114 -3.020363
2011-10-20 07:32:02 51°23.208 2°52.223 14.368 2.400843 18.679421 -3.020363
2011-10-20 07:32:07 51°23.224 2°52.223 14.3738 2.407764 18.731563 -3.020363
2011-10-20 07:32:12 51°23.241 2°52.224 14.3801 2.406421 18.715689 -3.020363
2011-10-20 07:32:17 51°23.256 2°52.225 14.3865 2.393303 18.598753 -3.020363
2011-10-20 07:32:22 51°23.273 2°52.226 14.3914 2.393303 18.598753 -3.020363
2011-10-20 07:32:27 51°23.289 2°52.227 14.3969 2.400327 18.652938 -3.020363
2011-10-20 07:32:33 51°23.309 2°52.227 14.4023 2.402392 18.665309 -3.020363
2011-10-20 07:32:37 51°23.322 2°52.226 14.4056 2.407144 18.700531 -3.020363
2011-10-20 07:32:42 51°23.339 2°52.226 14.41 2.40952 18.716732 -3.020363
2011-10-20 07:32:47 51°23.355 2°52.226 14.4131 2.402805 18.654395 -3.020363
2011-10-20 07:32:52 51°23.371 2°52.226 14.4151 2.402805 18.654395 -3.020363
2011-10-20 07:32:57 51°23.388 2°52.226 14.4188 2.407144 18.688086 -3.020363
2011-10-20 07:33:02 51°23.404 2°52.226 14.4232 2.408073 18.692783 -3.020363
2011-10-20 07:33:07 51°23.421 2°52.225 14.427 2.410449 18.710178 -3.020363
2011-10-20 07:33:12 51°23.438 2°52.225 14.4309 2.407867 18.685011 -3.020363
2011-10-20 07:33:17 51°23.455 2°52.225 14.4332 2.414994 18.743202 -3.020363
2011-10-20 07:33:22 51°23.472 2°52.226 14.4372 2.414994 18.743202 -3.020363
2011-10-20 07:33:27 51°23.489 2°52.225 14.438 2.414994 18.74079 -3.020363
2011-10-20 07:33:32 51°23.507 2°52.226 14.4405 2.405801 18.660644 -3.020363
2011-10-20 07:33:37 51°23.524 2°52.225 14.4427 2.416853 18.752577 -3.020363
2011-10-20 07:33:42 51°23.541 2°52.225 14.444 2.410242 18.693981 -3.020363
2011-10-20 07:33:47 51°23.558 2°52.224 14.4469 2.414994 18.731952 -3.020363
2011-10-20 07:33:52 51°23.575 2°52.225 14.4503 2.414994 18.731952 -3.020363
2011-10-20 07:33:57 51°23.593 2°52.224 14.4526 2.411688 18.70226 -3.020363
2011-10-20 07:34:02 51°23.61 2°52.224 14.4551 2.412102 18.703767 -3.020363
2011-10-20 07:34:07 51°23.627 2°52.224 14.4569 2.41582 18.733353 -3.020363
2011-10-20 07:34:12 51°23.644 2°52.224 14.4598 2.421089 18.77691 -3.020363
2011-10-20 07:34:17 51°23.661 2°52.224 14.4619 2.411482 18.693694 -3.020363
2011-10-20 07:34:22 51°23.678 2°52.224 14.4644 2.411482 18.693694 -3.020363
2011-10-20 07:34:27 51°23.695 2°52.224 14.4669 2.416957 18.738992 -3.020363
2011-10-20 07:34:32 51°23.712 2°52.223 14.4687 2.414581 18.716807 -3.020363
2011-10-20 07:34:37 51°23.729 2°52.223 14.471 2.416956 18.735781 -3.020363
2011-10-20 07:34:42 51°23.746 2°52.223 14.4731 2.420159 18.761373 -3.020363
2011-10-20 07:34:47 51°23.763 2°52.223 14.4761 2.414271 18.710167 -3.020363
2011-10-20 07:34:52 51°23.78 2°52.223 14.4783 2.414271 18.710167 -3.020363
2011-10-20 07:34:57 51°23.797 2°52.223 14.4807 2.41582 18.722121 -3.020363
2011-10-20 07:35:02 51°23.814 2°52.223 14.483 2.408899 18.661769 -3.020363
2011-10-20 07:35:07 51°23.831 2°52.223 14.4859 2.419332 18.749134 -3.020363
2011-10-20 07:35:13 51°23.85 2°52.224 14.4894 2.420469 18.757176 -3.020363
2011-10-20 07:35:17 51°23.864 2°52.224 14.4913 2.41644 18.721771 -3.020363
2011-10-20 07:35:22 51°23.88 2°52.225 14.4962 2.41644 18.721771 -3.020363
2011-10-20 07:35:27 51°23.896 2°52.226 14.4984 2.413134 18.692515 -3.020363
2011-10-20 07:35:33 51°23.916 2°52.226 14.5019 2.414787 18.70494 -3.020363
2011-10-20 07:35:37 51°23.929 2°52.226 14.5057 2.415923 18.712981 -3.020363
2011-10-20 07:35:42 51°23.945 2°52.226 14.5092 2.418402 18.732819 -3.020363
2011-10-20 07:35:47 51°23.962 2°52.225 14.5124 2.415303 18.70492 -3.020363
2011-10-20 07:35:53 51°23.981 2°52.226 14.5151 2.415303 18.70492 -3.020363
2011-10-20 07:35:58 51°23.997 2°52.226 14.5192 2.41489 18.699414 -3.020363
2011-10-20 07:36:03 51°24.013 2°52.226 14.5215 2.411585 18.670175 -3.020363
2011-10-20 07:36:08 51°24.029 2°52.226 14.524 2.417886 18.721625 -3.020363
2011-10-20 07:36:13 51°24.045 2°52.226 14.5254 2.4152 18.696843 -3.020363
2011-10-20 07:36:17 51°24.058 2°52.226 14.5286 2.420468 18.739928 -3.020363
2011-10-20 07:36:22 51°24.074 2°52.226 14.5299 2.420468 18.739928 -3.020363
2011-10-20 07:36:28 51°24.092 2°52.226 14.5312 2.41427 18.685362 -3.020363
2011-10-20 07:36:33 51°24.109 2°52.226 14.5333 2.419745 18.729789 -3.020363
2011-10-20 07:36:38 51°24.125 2°52.225 14.5343 2.413444 18.674363 -3.020363
2011-10-20 07:36:43 51°24.141 2°52.225 14.5352 2.422844 18.752865 -3.020363
2011-10-20 07:36:48 51°24.157 2°52.224 14.5374 2.418402 18.7136 -3.020363
2011-10-20 07:36:53 51°24.173 2°52.223 14.5382 2.418402 18.7136 -3.020363
2011-10-20 07:36:57 51°24.186 2°52.224 14.5391 2.414683 18.680878 -3.020363
2011-10-20 07:37:02 51°24.203 2°52.223 14.5402 2.420365 18.727839 -3.020363
2011-10-20 07:37:07 51°24.219 2°52.223 14.5422 2.419228 18.717006 -3.020363
2011-10-20 07:37:12 51°24.236 2°52.222 14.5429 2.421088 18.731568 -3.020363
2011-10-20 07:37:17 51°24.253 2°52.222 14.5437 2.415406 18.682615 -3.020363
2011-10-20 07:37:22 51°24.27 2°52.221 14.545 2.415406 18.682615 -3.020363
2011-10-20 07:37:27 51°24.286 2°52.22 14.5453 2.427596 18.785138 -3.020363
2011-10-20 07:37:33 51°24.306 2°52.22 14.5462 2.412824 18.659138 -3.020363
2011-10-20 07:37:38 51°24.321 2°52.219 14.5478 2.42367 18.750656 -3.020363
2011-10-20 07:37:43 51°24.338 2°52.219 14.5487 2.422637 18.740699 -3.020363
2011-10-20 07:37:48 51°24.354 2°52.219 14.5479 2.42367 18.748654 -3.020363
2011-10-20 07:37:53 51°24.37 2°52.219 14.5485 2.42367 18.748654 -3.020363
2011-10-20 07:37:57 51°24.384 2°52.219 14.5502 2.415819 18.681328 -3.020363
2011-10-20 07:38:02 51°24.4 2°52.219 14.5499 2.421088 18.725567 -3.020363
2011-10-20 07:38:07 51°24.417 2°52.219 14.5495 2.424497 18.753656 -3.020363
2011-10-20 07:38:12 51°24.434 2°52.22 14.5496 2.420055 18.715614 -3.020363
2011-10-20 07:38:17 51°24.451 2°52.22 14.5508 2.426873 18.772991 -3.020363
2011-10-20 07:38:22 51°24.468 2°52.221 14.5504 2.426873 18.772991 -3.020363
2011-10-20 07:38:27 51°24.484 2°52.221 14.5493 2.420881 18.721817 -3.020363
2011-10-20 07:38:32 51°24.501 2°52.22 14.551 2.428732 18.78795 -3.020363
2011-10-20 07:38:37 51°24.518 2°52.219 14.5495 2.416646 18.685137 -3.020363
2011-10-20 07:38:42 51°24.535 2°52.219 14.5494 2.423773 18.745125 -3.020363
2011-10-20 07:38:47 51°24.552 2°52.219 14.5508 2.427802 18.779267 -3.020363
2011-10-20 07:38:52 51°24.568 2°52.218 14.5513 2.427802 18.779267 -3.020363
2011-10-20 07:38:57 51°24.584 2°52.218 14.5521 2.422844 18.737247 -3.020363
2011-10-20 07:39:02 51°24.601 2°52.217 14.5525 2.4246 18.751728 -3.020363
2011-10-20 07:39:07 51°24.618 2°52.216 14.5548 2.420778 18.719343 -3.020363
2011-10-20 07:39:12 51°24.635 2°52.215 14.5545 2.42491 18.754354 -3.020363
2011-10-20 07:39:17 51°24.652 2°52.214 14.5547 2.422121 18.73072 -3.020363
2011-10-20 07:39:22 51°24.669 2°52.213 14.5572 2.422121 18.73072 -3.020363
2011-10-20 07:39:27 51°24.686 2°52.213 14.5603 2.414786 18.668191 -3.020363
2011-10-20 07:39:33 51°24.705 2°52.211 14.5634 2.424187 18.747826 -3.020363
2011-10-20 07:39:37 51°24.718 2°52.211 14.5666 2.414167 18.662543 -3.020363
2011-10-20 07:39:42 51°24.735 2°52.21 14.5707 2.425943 18.761906 -3.020363
2011-10-20 07:39:47 51°24.752 2°52.21 14.5744 2.422637 18.733497 -3.020363
2011-10-20 07:39:52 51°24.768 2°52.21 14.579 2.422637 18.733497 -3.020363
2011-10-20 07:39:58 51°24.786 2°52.21 14.5842 2.414476 18.663574 -3.020363
2011-10-20 07:40:03 51°24.801 2°52.21 14.5904 2.427286 18.771283 -3.020363
2011-10-20 07:40:08 51°24.817 2°52.21 14.5963 2.409621 18.620476 -3.020363
2011-10-20 07:40:13 51°24.833 2°52.211 14.6042 2.422844 18.730848 -3.020363
2011-10-20 07:40:18 51°24.849 2°52.211 14.6121 2.42305 18.731399 -3.020363
2011-10-20 07:40:23 51°24.865 2°52.212 14.618 2.42305 18.731399 -3.020363
2011-10-20 07:40:28 51°24.881 2°52.212 14.6293 2.418918 18.694011 -3.020363
2011-10-20 07:40:32 51°24.894 2°52.212 14.6368 2.429558 18.78172 -3.020363
2011-10-20 07:40:37 51°24.91 2°52.212 14.6425 2.422947 18.722932 -3.020363
2011-10-20 07:40:42 51°24.927 2°52.211 14.6484 2.42367 18.726258 -3.020363
2011-10-20 07:40:47 51°24.943 2°52.211 14.6551 2.425633 18.739277 -3.020363
2011-10-20 07:40:52 51°24.959 2°52.211 14.6615 2.425633 18.739277 -3.020363
2011-10-20 07:40:57 51°24.975 2°52.212 14.6676 2.416955 18.662659 -3.020363
2011-10-20 07:41:02 51°24.99 2°52.213 14.6756 2.430074 18.769277 -3.020363
2011-10-20 07:41:07 51°25.006 2°52.214 14.6815 2.423463 18.709347 -3.020363
2011-10-20 07:41:12 51°25.023 2°52.214 14.6868 2.423256 18.703215 -3.020363
2011-10-20 07:41:17 51°25.039 2°52.215 14.6908 2.425322 18.717099 -3.020363
2011-10-20 07:41:22 51°25.055 2°52.215 14.6971 2.425322 18.717099 -3.020363
2011-10-20 07:41:27 51°25.072 2°52.216 14.7014 2.417471 18.646756 -3.020363
2011-10-20 07:41:32 51°25.089 2°52.216 14.7049 2.42274 18.688099 -3.020363
2011-10-20 07:41:37 51°25.106 2°52.216 14.7097 2.429248 18.73952 -3.020363
2011-10-20 07:41:42 51°25.122 2°52.216 14.7167 2.427388 18.719819 -3.020363
2011-10-20 07:41:47 51°25.139 2°52.216 14.72 2.424909 18.695689 -3.020363
2011-10-20 07:41:53 51°25.159 2°52.215 14.7282 2.424909 18.695689 -3.020363
2011-10-20 07:41:57 51°25.173 2°52.215 14.7342 2.423772 18.682514 -3.020363
2011-10-20 07:42:02 51°25.189 2°52.212 14.74 2.423049 18.673627 -3.020363
2011-10-20 07:42:07 51°25.206 2°52.209 14.7437 2.43307 18.755465 -3.020363
2011-10-20 07:42:12 51°25.223 2°52.205 14.7479 2.423876 18.675045 -3.020363
2011-10-20 07:42:17 51°25.239 2°52.2 14.749 2.43059 18.72895 -3.020363
2011-10-20 07:42:22 51°25.255 2°52.195 14.7592 2.43059 18.72895 -3.020363
2011-10-20 07:42:27 51°25.271 2°52.19 14.7639 2.429041 18.712686 -3.020363
2011-10-20 07:42:33 51°25.291 2°52.183 14.771 2.427698 18.698172 -3.020363
2011-10-20 07:42:37 51°25.304 2°52.178 14.7791 2.428214 18.69975 -3.020363
2011-10-20 07:42:42 51°25.32 2°52.173 14.7825 2.430177 18.713132 -3.020363
2011-10-20 07:42:47 51°25.336 2°52.166 14.7878 2.419847 18.623227 -3.020363
2011-10-20 07:42:52 51°25.352 2°52.161 14.7946 2.419847 18.623227 -3.020363
2011-10-20 07:42:57 51°25.368 2°52.155 14.799 2.427697 18.687056 -3.020363
2011-10-20 07:43:02 51°25.384 2°52.149 14.8058 2.42966 18.700435 -3.020363
2011-10-20 07:43:07 51°25.401 2°52.144 14.8087 2.432036 18.717295 -3.020363
2011-10-20 07:43:12 51°25.416 2°52.138 14.816 2.428834 18.686723 -3.020363
2011-10-20 07:43:17 51°25.433 2°52.132 14.8221 2.433895 18.725823 -3.020363
2011-10-20 07:43:22 51°25.449 2°52.126 14.8257 2.433895 18.725823 -3.020363
2011-10-20 07:43:27 51°25.466 2°52.121 14.8331 2.435238 18.733966 -3.020363
2011-10-20 07:43:32 51°25.482 2°52.116 14.8366 2.433275 18.71385 -3.020363
2011-10-20 07:43:37 51°25.498 2°52.11 14.8415 2.438337 18.753729 -3.020363
2011-10-20 07:43:42 51°25.515 2°52.104 14.8472 2.429143 18.672697 -3.020363
2011-10-20 07:43:47 51°25.531 2°52.1 14.8504 2.428833 18.667318 -3.020363
2011-10-20 07:43:53 51°25.551 2°52.094 14.8548 2.428833 18.667318 -3.020363
2011-10-20 07:43:57 51°25.563 2°52.09 14.857 2.434825 18.714212 -3.020363
2011-10-20 07:44:02 51°25.58 2°52.085 14.8661 2.424081 18.620993 -3.020363
2011-10-20 07:44:07 51°25.596 2°52.081 14.8701 2.438957 18.743854 -3.020363
2011-10-20 07:44:13 51°25.614 2°52.077 14.8726 2.431726 18.679407 -3.020363
2011-10-20 07:44:18 51°25.629 2°52.073 14.8771 2.434825 18.702722 -3.020363
2011-10-20 07:44:23 51°25.645 2°52.07 14.8817 2.434825 18.702722 -3.020363
2011-10-20 07:44:28 51°25.661 2°52.065 14.8836 2.441643 18.757736 -3.020363
2011-10-20 07:44:33 51°25.676 2°52.062 14.8863 2.432552 18.678849 -3.020363
2011-10-20 07:44:37 51°25.688 2°52.058 14.8897 2.430176 18.655701 -3.020363
2011-10-20 07:44:42 51°25.704 2°52.054 14.8926 2.4372 18.712422 -3.020363
2011-10-20 07:44:47 51°25.719 2°52.05 14.8948 2.436271 18.702226 -3.020363
2011-10-20 07:44:53 51°25.738 2°52.044 14.8992 2.436271 18.702226 -3.020363
2011-10-20 07:44:57 51°25.751 2°52.041 14.903 2.43968 18.728131 -3.020363
2011-10-20 07:45:02 51°25.767 2°52.036 14.9053 2.438233 18.713987 -3.020363
2011-10-20 07:45:07 51°25.783 2°52.032 14.9076 2.438956 18.717693 -3.020363
2011-10-20 07:45:12 51°25.798 2°52.029 14.91 2.434204 18.676156 -3.020363
2011-10-20 07:45:17 51°25.814 2°52.025 14.9127 2.439473 18.718871 -3.020363
2011-10-20 07:45:23 51°25.833 2°52.02 14.9155 2.439473 18.718871 -3.020363
2011-10-20 07:45:28 51°25.848 2°52.016 14.9183 2.434308 18.673077 -3.020363
2011-10-20 07:45:33 51°25.864 2°52.011 14.9215 2.438233 18.704494 -3.020363
2011-10-20 07:45:37 51°25.877 2°52.008 14.9236 2.43813 18.701649 -3.020363
2011-10-20 07:45:42 51°25.893 2°52.003 14.925 2.442055 18.733064 -3.020363
2011-10-20 07:45:47 51°25.909 2°51.999 14.9276 2.439576 18.710642 -3.020363
2011-10-20 07:45:52 51°25.925 2°51.993 14.9294 2.439576 18.710642 -3.020363
2011-10-20 07:45:57 51°25.941 2°51.989 14.9308 2.433584 18.658717 -3.020363
2011-10-20 07:46:02 51°25.957 2°51.984 14.9334 2.439369 18.706139 -3.020363
2011-10-20 07:46:07 51°25.974 2°51.979 14.9367 2.429556 18.621727 -3.020363
2011-10-20 07:46:13 51°25.992 2°51.974 14.9378 2.439059 18.69998 -3.020363
2011-10-20 07:46:17 51°26.005 2°51.971 14.9388 2.443811 18.738721 -3.020363
2011-10-20 07:46:22 51°26.021 2°51.966 14.9405 2.443811 18.738721 -3.020363
2011-10-20 07:46:27 51°26.037 2°51.962 14.942 2.437406 18.683727 -3.020363
2011-10-20 07:46:32 51°26.053 2°51.958 14.944 2.434204 18.655255 -3.020363
2011-10-20 07:46:37 51°26.069 2°51.954 14.9448 2.436993 18.677495 -3.020363
2011-10-20 07:46:42 51°26.085 2°51.95 14.9465 2.439266 18.695399 -3.020363
2011-10-20 07:46:47 51°26.101 2°51.945 14.9482 2.444121 18.734599 -3.020363
2011-10-20 07:46:52 51°26.117 2°51.941 14.9492 2.444121 18.734599 -3.020363
2011-10-20 07:46:57 51°26.133 2°51.936 14.9492 2.450733 18.789352 -3.020363
2011-10-20 07:47:02 51°26.148 2°51.932 14.95 2.437716 18.679231 -3.020363
2011-10-20 07:47:07 51°26.164 2°51.927 14.9505 2.447427 18.759598 -3.020363
2011-10-20 07:47:12 51°26.18 2°51.923 14.9513 2.442675 18.718895 -3.020363
2011-10-20 07:47:17 51°26.196 2°51.918 14.9518 2.439989 18.695552 -3.020363
2011-10-20 07:47:22 51°26.212 2°51.913 14.9525 2.439989 18.695552 -3.020363
2011-10-20 07:47:27 51°26.228 2°51.909 14.9523 2.441848 18.709981 -3.020363
2011-10-20 07:47:32 51°26.243 2°51.905 14.9533 2.442675 18.716525 -3.020363
2011-10-20 07:47:37 51°26.259 2°51.901 14.9538 2.441229 18.703593 -3.020363
2011-10-20 07:47:42 51°26.275 2°51.897 14.954 2.441952 18.709664 -3.020363
2011-10-20 07:47:47 51°26.29 2°51.893 14.9544 2.435857 18.657711 -3.020363
2011-10-20 07:47:52 51°26.306 2°51.886 14.9553 2.435857 18.657711 -3.020363
2011-10-20 07:47:57 51°26.322 2°51.881 14.9565 2.442675 18.714551 -3.020363
2011-10-20 07:48:02 51°26.337 2°51.873 14.9561 2.437303 18.669063 -3.020363
2011-10-20 07:48:07 51°26.353 2°51.865 14.9568 2.444947 18.732842 -3.020363
2011-10-20 07:48:12 51°26.369 2°51.857 14.957 2.440919 18.698623 -3.020363
2011-10-20 07:48:17 51°26.384 2°51.849 14.9582 2.440299 18.69342 -3.020363
2011-10-20 07:48:22 51°26.4 2°51.84 14.9579 2.440299 18.69342 -3.020363
2011-10-20 07:48:27 51°26.416 2°51.832 14.9581 2.445154 18.734182 -3.020363
2011-10-20 07:48:32 51°26.431 2°51.822 14.9586 2.449286 18.768485 -3.020363
2011-10-20 07:48:37 51°26.446 2°51.813 14.959 2.447323 18.751606 -3.020363
2011-10-20 07:48:42 51°26.462 2°51.803 14.9576 2.442985 18.714784 -3.020363
2011-10-20 07:48:47 51°26.477 2°51.794 14.9575 2.445877 18.739068 -3.020363
2011-10-20 07:48:53 51°26.495 2°51.783 14.9586 2.445877 18.739068 -3.020363
2011-10-20 07:48:57 51°26.506 2°51.777 14.9585 2.44691 18.747346 -3.020363
2011-10-20 07:49:02 51°26.518 2°51.77 14.9606 2.442468 18.709658 -3.020363
2011-10-20 07:49:07 51°26.53 2°51.763 14.9602 2.448873 18.763035 -3.020363
2011-10-20 07:49:12 51°26.54 2°51.757 14.962 2.446084 18.739616 -3.020363
2011-10-20 07:49:17 51°26.55 2°51.752 14.961 2.443398 18.716673 -3.020363
2011-10-20 07:49:22 51°26.558 2°51.747 14.962 2.443398 18.716673 -3.020363
2011-10-20 07:49:27 51°26.566 2°51.743 14.9626 2.444328 18.724083 -3.020363
2011-10-20 07:49:32 51°26.573 2°51.738 14.9629 2.441332 18.698936 -3.020363
2011-10-20 07:49:37 51°26.579 2°51.735 14.9634 2.453625 18.801752 -3.020363
2011-10-20 07:49:42 51°26.585 2°51.733 14.965 2.446187 18.738902 -3.020363
2011-10-20 07:49:47 51°26.591 2°51.73 14.9641 2.444431 18.72416 -3.020363
2011-10-20 07:49:52 51°26.596 2°51.728 14.9649 2.444431 18.72416 -3.020363
2011-10-20 07:49:57 51°26.6 2°51.725 14.9659 2.447737 18.751516 -3.020363
2011-10-20 07:50:02 51°26.605 2°51.723 14.9662 2.445361 18.73157 -3.020363
2011-10-20 07:50:07 51°26.609 2°51.72 14.9661 2.442985 18.710836 -3.020363
2011-10-20 07:50:12 51°26.612 2°51.718 14.9677 2.447013 18.744654 -3.020363
2011-10-20 07:50:17 51°26.615 2°51.718 14.969 2.445567 18.732119 -3.020363
2011-10-20 07:50:22 51°26.617 2°51.716 14.9694 2.445567 18.732119 -3.020363
2011-10-20 07:50:27 51°26.62 2°51.716 14.9696 2.446187 18.736927 -3.020363
2011-10-20 07:50:32 51°26.621 2°51.714 14.9712 2.44691 18.742997 -3.020363
2011-10-20 07:50:37 51°26.623 2°51.714 14.9715 2.445464 18.730462 -3.020363
2011-10-20 07:50:42 51°26.624 2°51.715 14.9715 2.445877 18.733535 -3.020363
2011-10-20 07:50:47 51°26.624 2°51.716 14.9717 2.451662 18.781703 -3.020363
2011-10-20 07:50:52 51°26.625 2°51.717 14.9722 2.451662 18.781703 -3.020363
2011-10-20 07:50:57 51°26.625 2°51.718 14.9722 2.451146 18.776971 -3.020363
2011-10-20 07:51:02 51°26.625 2°51.719 14.9727 2.446497 18.737552 -3.020363
2011-10-20 07:51:07 51°26.625 2°51.722 14.9726 2.447737 18.747562 -3.020363
2011-10-20 07:51:12 51°26.624 2°51.723 14.9743 2.449699 18.763247 -3.020363
2011-10-20 07:51:17 51°26.623 2°51.725 14.9741 2.447013 18.740702 -3.020363
2011-10-20 07:51:24 51°26.622 2°51.728 14.9756 2.447013 18.740702 -3.020363
2011-10-20 07:51:29 51°26.621 2°51.731 14.9751 2.452385 18.785398 -3.020363
2011-10-20 07:51:35 51°26.62 2°51.732 14.975 2.454865 18.805817 -3.020363
2011-10-20 07:51:41 51°26.619 2°51.735 14.9761 2.442365 18.700902 -3.020363
2011-10-20 07:51:45 51°26.618 2°51.736 14.9766 2.456001 18.814961 -3.020363
2011-10-20 07:51:51 51°26.616 2°51.739 14.9765 2.449493 18.75993 -3.020363
2011-10-20 07:51:56 51°26.616 2°51.741 14.9777 2.449493 18.75993 -3.020363
2011-10-20 07:52:01 51°26.615 2°51.743 14.9783 2.446084 18.731319 -3.020363
2011-10-20 07:52:05 51°26.614 2°51.744 14.9793 2.451972 18.780345 -3.020363
2011-10-20 07:52:10 51°26.613 2°51.747 14.9799 2.450939 18.771674 -3.020363
2011-10-20 07:52:15 51°26.612 2°51.749 14.981 2.454761 18.803364 -3.020363
2011-10-20 07:52:20 51°26.612 2°51.751 14.9807 2.451146 18.772616 -3.020363
2011-10-20 07:52:25 51°26.611 2°51.753 14.9808 2.451146 18.772616 -3.020363
2011-10-20 07:52:30 51°26.61 2°51.755 14.981 2.454658 18.801704 -3.020363
2011-10-20 07:52:35 51°26.609 2°51.756 14.982 2.44629 18.731079 -3.020363
2011-10-20 07:52:40 51°26.608 2°51.758 14.9824 2.453625 18.792239 -3.020363
2011-10-20 07:52:45 51°26.607 2°51.76 14.9833 2.448356 18.747626 -3.020363
2011-10-20 07:52:49 51°26.606 2°51.762 14.9838 2.44722 18.737695 -3.020363
2011-10-20 07:52:54 51°26.605 2°51.764 14.9844 2.44722 18.737695 -3.020363
2011-10-20 07:52:59 51°26.604 2°51.765 14.9847 2.456208 18.81273 -3.020363
2011-10-20 07:53:04 51°26.603 2°51.767 14.9848 2.448563 18.748569 -3.020363
2011-10-20 07:53:09 51°26.602 2°51.769 14.9846 2.451455 18.772447 -3.020363
2011-10-20 07:53:13 51°26.602 2°51.77 14.9845 2.449699 18.757314 -3.020363
2011-10-20 07:53:18 51°26.601 2°51.77 14.9846 2.454245 18.795065 -3.020363
2011-10-20 07:53:23 51°26.601 2°51.771 14.9858 2.454245 18.795065 -3.020363
2011-10-20 07:53:28 51°26.601 2°51.772 14.986 2.454968 18.800739 -3.020363
2011-10-20 07:53:33 51°26.601 2°51.773 14.9864 2.451869 18.774728 -3.020363
2011-10-20 07:53:38 51°26.6 2°51.773 14.9865 2.44846 18.746122 -3.020363
2011-10-20 07:53:42 51°26.601 2°51.774 14.9866 2.448356 18.74486 -3.020363
2011-10-20 07:53:47 51°26.601 2°51.774 14.9864 2.454348 18.79514 -3.020363
2011-10-20 07:53:52 51°26.601 2°51.774 14.9873 2.454348 18.79514 -3.020363
2011-10-20 07:53:57 51°26.601 2°51.774 14.9879 2.452075 18.776066 -3.020363
2011-10-20 07:54:02 51°26.602 2°51.775 14.988 2.451559 18.771336 -3.020363
2011-10-20 07:54:07 51°26.602 2°51.774 14.9899 2.452488 18.778743 -3.020363
2011-10-20 07:54:12 51°26.603 2°51.775 14.9886 2.454451 18.795215 -3.020363
2011-10-20 07:54:17 51°26.603 2°51.774 14.9899 2.452488 18.778743 -3.020363
2011-10-20 07:54:22 51°26.604 2°51.776 14.99 2.452488 18.778743 -3.020363
2011-10-20 07:54:27 51°26.603 2°51.775 14.9896 2.457757 18.822168 -3.020363
2011-10-20 07:54:33 51°26.604 2°51.776 14.9903 2.442468 18.693886 -3.020363
2011-10-20 07:54:37 51°26.604 2°51.776 14.9898 2.452385 18.777084 -3.020363
2011-10-20 07:54:42 51°26.604 2°51.776 14.9902 2.446703 18.728624 -3.020363
2011-10-20 07:54:47 51°26.604 2°51.776 14.9907 2.452488 18.77716 -3.020363
2011-10-20 07:54:52 51°26.605 2°51.777 14.9906 2.452488 18.77716 -3.020363
2011-10-20 07:54:57 51°26.604 2°51.776 14.9916 2.454038 18.789767 -3.020363
2011-10-20 07:55:02 51°26.605 2°51.777 14.9905 2.444947 18.713104 -3.020363
2011-10-20 07:55:07 51°26.605 2°51.777 14.9904 2.451042 18.764234 -3.020363
2011-10-20 07:55:12 51°26.605 2°51.777 14.9909 2.452282 18.774635 -3.020363
2011-10-20 07:55:17 51°26.605 2°51.777 14.9925 2.453522 18.784641 -3.020363
2011-10-20 07:55:22 51°26.605 2°51.777 14.9926 2.453522 18.784641 -3.020363
2011-10-20 07:55:27 51°26.606 2°51.777 14.9928 2.451042 18.763838 -3.020363
2011-10-20 07:55:33 51°26.606 2°51.778 14.9936 2.453212 18.781645 -3.020363
2011-10-20 07:55:37 51°26.605 2°51.777 14.9941 2.451869 18.770377 -3.020363
2011-10-20 07:55:42 51°26.606 2°51.777 14.9931 2.448769 18.744377 -3.020363
2011-10-20 07:55:47 51°26.606 2°51.777 14.993 2.455071 18.797248 -3.020363
2011-10-20 07:55:52 51°26.606 2°51.777 14.994 2.455071 18.797248 -3.020363
2011-10-20 07:55:57 51°26.605 2°51.777 14.9928 2.456104 18.805521 -3.020363
2011-10-20 07:56:02 51°26.606 2°51.777 14.9926 2.453521 18.783849 -3.020363
2011-10-20 07:56:07 51°26.606 2°51.777 14.9923 2.449906 18.753119 -3.020363
2011-10-20 07:56:13 51°26.606 2°51.778 14.9942 2.451869 18.76919 -3.020363
2011-10-20 07:56:17 51°26.606 2°51.778 14.9952 2.452798 18.776991 -3.020363
2011-10-20 07:56:22 51°26.606 2°51.778 14.9954 2.452798 18.776991 -3.020363
2011-10-20 07:56:27 51°26.606 2°51.778 14.9933 2.447426 18.731927 -3.020363
2011-10-20 07:56:32 51°26.606 2°51.779 14.9946 2.448046 18.737126 -3.020363
2011-10-20 07:56:37 51°26.605 2°51.779 14.9949 2.453728 18.784791 -3.020363
2011-10-20 07:56:42 51°26.607 2°51.78 14.9947 2.451972 18.770057 -3.020363
2011-10-20 07:56:47 51°26.606 2°51.78 14.9942 2.446393 18.722868 -3.020363
2011-10-20 07:56:52 51°26.607 2°51.78 14.995 2.446393 18.722868 -3.020363
2011-10-20 07:56:57 51°26.607 2°51.78 14.994 2.455381 18.798264 -3.020363
2011-10-20 07:57:02 51°26.607 2°51.78 14.9947 2.455071 18.795268 -3.020363
2011-10-20 07:57:07 51°26.607 2°51.78 14.9944 2.450629 18.758 -3.020363
2011-10-20 07:57:13 51°26.608 2°51.78 14.9955 2.456621 18.80827 -3.020363
2011-10-20 07:57:17 51°26.608 2°51.779 14.9967 2.454555 18.79133 -3.020363
2011-10-20 07:57:22 51°26.608 2°51.779 14.9964 2.454555 18.79133 -3.020363
2011-10-20 07:57:27 51°26.608 2°51.779 14.996 2.450732 18.758867 -3.020363